Observation data for Dell City 1N on 08/14/2019      Previous  Date  Next       Current Mesonet Observations  Soil Data  Daily Summary Page  Observations in Plain Language
KDC1 140500Z 24004KT 24/17 A3012 RMK A01 T02370174  RH  068%=      5-min Rain = 0
KDC1 140501Z 24004KT 24/17 A3012 RMK A01 T02360174  RH  068%=      5-min Rain = 0
KDC1 140502Z 24004KT 24/17 A3012 RMK A01 T02350174  RH  068%=      5-min Rain = 0
KDC1 140503Z 24004KT 24/17 A3012 RMK A01 T02350174  RH  069%=      5-min Rain = 0
KDC1 140504Z 24004KT 24/17 A3012 RMK A01 T02350172  RH  068%=      5-min Rain = 0
KDC1 140505Z 25003KT 24/17 A3012 RMK A01 T02360171  RH  067%=      5-min Rain = 0
KDC1 140506Z 24004KT 24/17 A3012 RMK A01 T02370172  RH  067%=      5-min Rain = 0
KDC1 140507Z 25005KT 24/17 A3012 RMK A01 T02370170  RH  066%=      5-min Rain = 0
KDC1 140508Z 25005KT 24/17 A3012 RMK A01 T02380172  RH  066%=      5-min Rain = 0
KDC1 140509Z 26004KT 24/17 A3012 RMK A01 T02380173  RH  067%=      5-min Rain = 0
KDC1 140510Z 26004KT 24/18 A3012 RMK A01 T02370176  RH  069%=      5-min Rain = 0
KDC1 140527Z 29005KT 22/18 A3013 RMK A01 T02200182  RH  079%=      5-min Rain = 0
KDC1 140528Z 29006KT 22/18 A3013 RMK A01 T02190181  RH  079%=      5-min Rain = 0
KDC1 140529Z 29005KT 22/18 A3013 RMK A01 T02180181  RH  079%=      5-min Rain = 0
KDC1 140530Z 29004KT 22/18 A3013 RMK A01 T02180180  RH  079%=      5-min Rain = 0
KDC1 140531Z 29004KT 22/18 A3013 RMK A01 T02170180  RH  079%=      5-min Rain = 0
KDC1 140532Z 28004KT 22/18 A3013 RMK A01 T02170179  RH  079%=      5-min Rain = 0
KDC1 140533Z 28005KT 22/18 A3013 RMK A01 T02160179  RH  079%=      5-min Rain = 0
KDC1 140534Z 28005KT 22/18 A3013 RMK A01 T02160178  RH  079%=      5-min Rain = 0
KDC1 140535Z 28005KT 22/18 A3013 RMK A01 T02160179  RH  079%=      5-min Rain = 0
KDC1 140536Z 28005KT 22/18 A3013 RMK A01 T02160179  RH  079%=      5-min Rain = 0
KDC1 140537Z 29004KT 22/18 A3013 RMK A01 T02160179  RH  079%=      5-min Rain = 0
KDC1 140538Z 30004KT 22/18 A3013 RMK A01 T02160181  RH  080%=      5-min Rain = 0
KDC1 140539Z 30005KT 22/18 A3013 RMK A01 T02150181  RH  081%=      5-min Rain = 0
KDC1 140540Z 30006KT 21/18 A3013 RMK A01 T02140180  RH  081%=      5-min Rain = 0
KDC1 140541Z 30007KT 21/18 A3013 RMK A01 T02140176  RH  079%=      5-min Rain = 0
KDC1 140542Z 30007KT 22/17 A3013 RMK A01 T02150174  RH  077%=      5-min Rain = 0
KDC1 140543Z 30006KT 22/17 A3013 RMK A01 T02160174  RH  077%=      5-min Rain = 0
KDC1 140544Z 30007KT 22/18 A3013 RMK A01 T02160176  RH  078%=      5-min Rain = 0
KDC1 140545Z 30008KT 22/18 A3013 RMK A01 T02150176  RH  078%=      5-min Rain = 0
KDC1 140546Z 29007KT 22/18 A3013 RMK A01 T02150175  RH  078%=      5-min Rain = 0
KDC1 140547Z 29007KT 22/18 A3013 RMK A01 T02150175  RH  078%=      5-min Rain = 0
KDC1 140548Z 30006KT 21/18 A3013 RMK A01 T02140176  RH  079%=      5-min Rain = 0
KDC1 140549Z 30005KT 21/18 A3013 RMK A01 T02140177  RH  079%=      5-min Rain = 0
KDC1 140550Z 30005KT 21/18 A3013 RMK A01 T02130177  RH  080%=      5-min Rain = 0
KDC1 140551Z 30004KT 21/18 A3013 RMK A01 T02130176  RH  080%=      5-min Rain = 0
KDC1 140552Z 30003KT 21/18 A3013 RMK A01 T02120176  RH  080%=      5-min Rain = 0
KDC1 140553Z 30003KT 21/18 A3013 RMK A01 T02120175  RH  079%=      5-min Rain = 0
KDC1 140554Z 30003KT 21/17 A3013 RMK A01 T02120174  RH  079%=      5-min Rain = 0
KDC1 140555Z 30003KT 21/18 A3013 RMK A01 T02120175  RH  079%=      5-min Rain = 0
KDC1 140556Z 29003KT 21/17 A3013 RMK A01 T02120174  RH  079%=      5-min Rain = 0
KDC1 140557Z 30004KT 21/17 A3013 RMK A01 T02120172  RH  078%=      5-min Rain = 0
KDC1 140558Z 30004KT 21/17 A3013 RMK A01 T02120171  RH  078%=      5-min Rain = 0
KDC1 140559Z 29004KT 21/17 A3013 RMK A01 T02120172  RH  078%=      5-min Rain = 0
KDC1 140600Z 28004KT 21/17 A3013 RMK A01 T02120171  RH  077%=      5-min Rain = 0
KDC1 140601Z 28005KT 21/17 A3013 RMK A01 T02130170  RH  077%=      5-min Rain = 0
KDC1 140602Z 28004KT 21/17 A3013 RMK A01 T02140171  RH  077%=      5-min Rain = 0
KDC1 140603Z 26003KT 21/17 A3013 RMK A01 T02140171  RH  076%=      5-min Rain = 0
KDC1 140604Z 26003KT 21/17 A3013 RMK A01 T02140170  RH  076%=      5-min Rain = 0
KDC1 140605Z 27004KT 22/17 A3013 RMK A01 T02150169  RH  075%=      5-min Rain = 0
KDC1 140606Z 28005KT 22/17 A3013 RMK A01 T02170168  RH  074%=      5-min Rain = 0
KDC1 140607Z 28004KT 22/17 A3013 RMK A01 T02180168  RH  073%=      5-min Rain = 0
KDC1 140608Z 28004KT 22/17 A3013 RMK A01 T02190169  RH  073%=      5-min Rain = 0
KDC1 140609Z 27004KT 22/17 A3013 RMK A01 T02190169  RH  073%=      5-min Rain = 0
KDC1 140610Z 28004KT 22/17 A3013 RMK A01 T02200169  RH  073%=      5-min Rain = 0
KDC1 140611Z 29005KT 22/17 A3013 RMK A01 T02200170  RH  073%=      5-min Rain = 0
KDC1 140612Z 30005KT 22/17 A3013 RMK A01 T02190171  RH  074%=      5-min Rain = 0
KDC1 140613Z 30005KT 22/17 A3013 RMK A01 T02180170  RH  074%=      5-min Rain = 0
KDC1 140614Z 30004KT 22/17 A3014 RMK A01 T02170172  RH  075%=      5-min Rain = 0
KDC1 140615Z 29003KT 22/17 A3014 RMK A01 T02160173  RH  076%=      5-min Rain = 0
KDC1 140616Z 29003KT 22/17 A3014 RMK A01 T02150173  RH  077%=      5-min Rain = 0
KDC1 140617Z 30004KT 21/17 A3014 RMK A01 T02140172  RH  077%=      5-min Rain = 0
KDC1 140618Z 30005KT 21/17 A3014 RMK A01 T02140171  RH  077%=      5-min Rain = 0
KDC1 140619Z 29004KT 21/17 A3014 RMK A01 T02130171  RH  077%=      5-min Rain = 0
KDC1 140620Z 30005KT 21/17 A3014 RMK A01 T02130169  RH  076%=      5-min Rain = 0
KDC1 140621Z 30005KT 21/17 A3014 RMK A01 T02140169  RH  076%=      5-min Rain = 0
KDC1 140622Z 30005KT 21/17 A3014 RMK A01 T02140170  RH  076%=      5-min Rain = 0
KDC1 140623Z 30005KT 21/17 A3014 RMK A01 T02140170  RH  076%=      5-min Rain = 0
KDC1 140624Z 31004KT 21/17 A3014 RMK A01 T02140171  RH  077%=      5-min Rain = 0
KDC1 140625Z 31005KT 21/17 A3014 RMK A01 T02130171  RH  077%=      5-min Rain = 0
KDC1 140626Z 31004KT 21/17 A3014 RMK A01 T02130167  RH  075%=      5-min Rain = 0
KDC1 140627Z 30004KT 21/17 A3014 RMK A01 T02140167  RH  075%=      5-min Rain = 0
KDC1 140628Z 30005KT 22/17 A3014 RMK A01 T02150167  RH  074%=      5-min Rain = 0
KDC1 140629Z 29003KT 22/17 A3014 RMK A01 T02150167  RH  074%=      5-min Rain = 0
KDC1 140630Z 30003KT 22/17 A3014 RMK A01 T02150166  RH  074%=      5-min Rain = 0
KDC1 140631Z 32003KT 22/17 A3014 RMK A01 T02150168  RH  074%=      5-min Rain = 0
KDC1 140632Z 33002KT 22/17 A3014 RMK A01 T02150167  RH  074%=      5-min Rain = 0
KDC1 140633Z 36001KT 22/17 A3014 RMK A01 T02160166  RH  073%=      5-min Rain = 0
KDC1 140634Z 31000KT 22/17 A3014 RMK A01 T02160165  RH  073%=      5-min Rain = 0
KDC1 140635Z 31001KT 22/16 A3014 RMK A01 T02160164  RH  072%=      5-min Rain = 0
KDC1 140636Z 31003KT 22/16 A3014 RMK A01 T02180161  RH  070%=      5-min Rain = 0
KDC1 140637Z 31003KT 22/16 A3014 RMK A01 T02210160  RH  068%=      5-min Rain = 0
KDC1 140638Z 30003KT 23/16 A3014 RMK A01 T02250161  RH  067%=      5-min Rain = 0
KDC1 140639Z 30003KT 23/16 A3014 RMK A01 T02260162  RH  067%=      5-min Rain = 0
KDC1 140640Z 30002KT 23/16 A3014 RMK A01 T02250164  RH  069%=      5-min Rain = 0
KDC1 140641Z 29002KT 22/17 A3014 RMK A01 T02230166  RH  070%=      5-min Rain = 0
KDC1 140642Z 28001KT 22/17 A3014 RMK A01 T02220166  RH  070%=      5-min Rain = 0
KDC1 140643Z 00000KT 22/17 A3014 RMK A01 T02210167  RH  072%=      5-min Rain = 0
KDC1 140644Z 00000KT 22/17 A3014 RMK A01 T02200167  RH  072%=      5-min Rain = 0
KDC1 140645Z 00000KT 22/17 A3014 RMK A01 T02190169  RH  073%=      5-min Rain = 0
KDC1 140646Z 00000KT 22/17 A3014 RMK A01 T02190169  RH  073%=      5-min Rain = 0
KDC1 140647Z 00000KT 22/17 A3014 RMK A01 T02180168  RH  073%=      5-min Rain = 0
KDC1 140648Z 00000KT 22/17 A3014 RMK A01 T02170169  RH  074%=      5-min Rain = 0
KDC1 140649Z 05000KT 22/17 A3014 RMK A01 T02170170  RH  074%=      5-min Rain = 0
KDC1 140650Z 07000KT 22/17 A3014 RMK A01 T02170168  RH  074%=      5-min Rain = 0
KDC1 140651Z 07001KT 22/17 A3014 RMK A01 T02170167  RH  073%=      5-min Rain = 0
KDC1 140652Z 05000KT 22/17 A3014 RMK A01 T02170167  RH  073%=      5-min Rain = 0
KDC1 140653Z 00001KT 22/17 A3014 RMK A01 T02180168  RH  073%=      5-min Rain = 0
KDC1 140654Z 35001KT 22/17 A3014 RMK A01 T02190168  RH  073%=      5-min Rain = 0
KDC1 140655Z 00000KT 22/17 A3014 RMK A01 T02180168  RH  073%=      5-min Rain = 0
KDC1 140656Z 00000KT 22/17 A3014 RMK A01 T02180167  RH  073%=      5-min Rain = 0
KDC1 140657Z 00000KT 22/17 A3014 RMK A01 T02180168  RH  073%=      5-min Rain = 0
KDC1 140658Z 30001KT 22/17 A3014 RMK A01 T02180166  RH  072%=      5-min Rain = 0
KDC1 140659Z 29001KT 22/17 A3014 RMK A01 T02180165  RH  072%=      5-min Rain = 0
KDC1 140700Z 28001KT 22/17 A3014 RMK A01 T02190167  RH  072%=      5-min Rain = 0
KDC1 140701Z 28001KT 22/16 A3014 RMK A01 T02180164  RH  071%=      5-min Rain = 0
KDC1 140702Z 28001KT 22/16 A3014 RMK A01 T02180164  RH  072%=      5-min Rain = 0
KDC1 140703Z 29001KT 22/17 A3014 RMK A01 T02180165  RH  072%=      5-min Rain = 0
KDC1 140704Z 28001KT 22/17 A3014 RMK A01 T02180170  RH  074%=      5-min Rain = 0
KDC1 140705Z 27001KT 22/17 A3014 RMK A01 T02160171  RH  076%=      5-min Rain = 0
KDC1 140706Z 27001KT 21/17 A3014 RMK A01 T02140168  RH  075%=      5-min Rain = 0
KDC1 140707Z 28001KT 21/17 A3014 RMK A01 T02140168  RH  075%=      5-min Rain = 0
KDC1 140708Z 27001KT 21/17 A3014 RMK A01 T02140168  RH  075%=      5-min Rain = 0
KDC1 140709Z 27001KT 21/17 A3014 RMK A01 T02140171  RH  076%=      5-min Rain = 0
KDC1 140710Z 28000KT 21/17 A3014 RMK A01 T02140173  RH  077%=      5-min Rain = 0
KDC1 140711Z 02000KT 21/17 A3015 RMK A01 T02130174  RH  078%=      5-min Rain = 0
KDC1 140712Z 03001KT 21/17 A3015 RMK A01 T02120174  RH  079%=      5-min Rain = 0
KDC1 140713Z 04002KT 21/17 A3015 RMK A01 T02110173  RH  079%=      5-min Rain = 0
KDC1 140714Z 04003KT 21/17 A3015 RMK A01 T02100173  RH  079%=      5-min Rain = 0
KDC1 140715Z 04003KT 21/17 A3015 RMK A01 T02100171  RH  078%=      5-min Rain = 0
KDC1 140716Z 04004KT 21/17 A3015 RMK A01 T02100170  RH  078%=      5-min Rain = 0
KDC1 140717Z 04004KT 21/17 A3015 RMK A01 T02100172  RH  079%=      5-min Rain = 0
KDC1 140718Z 02004KT 21/17 A3015 RMK A01 T02100173  RH  079%=      5-min Rain = 0
KDC1 140719Z 02004KT 21/17 A3015 RMK A01 T02090173  RH  080%=      5-min Rain = 0
KDC1 140720Z 02004KT 21/17 A3015 RMK A01 T02080173  RH  080%=      5-min Rain = 0
KDC1 140721Z 02004KT 21/17 A3015 RMK A01 T02080174  RH  081%=      5-min Rain = 0
KDC1 140722Z 02005KT 21/17 A3015 RMK A01 T02070174  RH  082%=      5-min Rain = 0
KDC1 140723Z 02005KT 21/18 A3015 RMK A01 T02060176  RH  083%=      5-min Rain = 0
KDC1 140724Z 01005KT 20/18 A3015 RMK A01 T02040176  RH  084%=      5-min Rain = 0
KDC1 140725Z 00006KT 20/18 A3015 RMK A01 T02030175  RH  084%=      5-min Rain = 0
KDC1 140726Z 36006KT 20/17 A3015 RMK A01 T02030173  RH  083%=      5-min Rain = 0
KDC1 140727Z 35007KT 20/17 A3014 RMK A01 T02030170  RH  081%=      5-min Rain = 0
KDC1 140728Z 34006KT 20/17 A3014 RMK A01 T02040169  RH  080%=      5-min Rain = 0
KDC1 140729Z 33006KT 21/17 A3014 RMK A01 T02060171  RH  080%=      5-min Rain = 0
KDC1 140730Z 33005KT 21/17 A3014 RMK A01 T02060172  RH  081%=      5-min Rain = 0
KDC1 140731Z 32004KT 21/17 A3014 RMK A01 T02050173  RH  082%=      5-min Rain = 0
KDC1 140732Z 30003KT 20/17 A3015 RMK A01 T02040172  RH  082%=      5-min Rain = 0
KDC1 140733Z 30003KT 20/17 A3015 RMK A01 T02030170  RH  081%=      5-min Rain = 0
KDC1 140734Z 28003KT 20/17 A3015 RMK A01 T02020167  RH  080%=      5-min Rain = 0
KDC1 140735Z 26004KT 20/17 A3015 RMK A01 T02030165  RH  079%=      5-min Rain = 0
KDC1 140736Z 28004KT 20/17 A3015 RMK A01 T02040165  RH  078%=      5-min Rain = 0
KDC1 140737Z 27004KT 21/17 A3014 RMK A01 T02050166  RH  078%=      5-min Rain = 0
KDC1 140738Z 28005KT 21/17 A3014 RMK A01 T02060167  RH  078%=      5-min Rain = 0
KDC1 140739Z 27005KT 21/17 A3014 RMK A01 T02060168  RH  079%=      5-min Rain = 0
KDC1 140740Z 28005KT 21/17 A3014 RMK A01 T02060168  RH  078%=      5-min Rain = 0
KDC1 140741Z 29005KT 21/17 A3014 RMK A01 T02060169  RH  079%=      5-min Rain = 0
KDC1 140742Z 28005KT 21/17 A3014 RMK A01 T02060170  RH  080%=      5-min Rain = 0
KDC1 140743Z 29005KT 21/17 A3014 RMK A01 T02050170  RH  080%=      5-min Rain = 0
KDC1 140744Z 28005KT 21/17 A3014 RMK A01 T02050169  RH  080%=      5-min Rain = 0
KDC1 140745Z 28005KT 20/17 A3014 RMK A01 T02040170  RH  080%=      5-min Rain = 0
KDC1 140746Z 27004KT 20/17 A3014 RMK A01 T02040169  RH  080%=      5-min Rain = 0
KDC1 140747Z 27004KT 20/17 A3014 RMK A01 T02040167  RH  079%=      5-min Rain = 0
KDC1 140748Z 27003KT 21/17 A3014 RMK A01 T02050167  RH  079%=      5-min Rain = 0
KDC1 140749Z 25003KT 21/17 A3014 RMK A01 T02060166  RH  078%=      5-min Rain = 0
KDC1 140750Z 26004KT 21/17 A3014 RMK A01 T02070166  RH  077%=      5-min Rain = 0
KDC1 140751Z 26004KT 21/17 A3014 RMK A01 T02080166  RH  077%=      5-min Rain = 0
KDC1 140752Z 27004KT 21/17 A3014 RMK A01 T02080166  RH  077%=      5-min Rain = 0
KDC1 140753Z 27004KT 21/17 A3014 RMK A01 T02090167  RH  077%=      5-min Rain = 0
KDC1 140754Z 28004KT 21/17 A3014 RMK A01 T02080168  RH  078%=      5-min Rain = 0
KDC1 140755Z 28005KT 21/17 A3014 RMK A01 T02080168  RH  078%=      5-min Rain = 0
KDC1 140756Z 28005KT 21/17 A3014 RMK A01 T02070168  RH  078%=      5-min Rain = 0
KDC1 140757Z 28005KT 21/17 A3014 RMK A01 T02060168  RH  079%=      5-min Rain = 0
KDC1 140758Z 26004KT 21/17 A3014 RMK A01 T02050168  RH  080%=      5-min Rain = 0
KDC1 140759Z 24004KT 20/17 A3014 RMK A01 T02040167  RH  079%=      5-min Rain = 0
KDC1 140800Z 24005KT 20/17 A3014 RMK A01 T02040165  RH  078%=      5-min Rain = 0
KDC1 140801Z 24005KT 20/16 A3014 RMK A01 T02040164  RH  078%=      5-min Rain = 0
KDC1 140802Z 24004KT 20/16 A3014 RMK A01 T02040163  RH  077%=      5-min Rain = 0
KDC1 140803Z 26005KT 20/16 A3014 RMK A01 T02040164  RH  078%=      5-min Rain = 0
KDC1 140804Z 26006KT 20/16 A3014 RMK A01 T02030163  RH  078%=      5-min Rain = 0
KDC1 140805Z 26005KT 20/16 A3014 RMK A01 T02030164  RH  078%=      5-min Rain = 0
KDC1 140806Z 26005KT 20/16 A3014 RMK A01 T02010163  RH  079%=      5-min Rain = 0
KDC1 140807Z 26005KT 20/16 A3014 RMK A01 T02010163  RH  079%=      5-min Rain = 0
KDC1 140808Z 27006KT 20/16 A3013 RMK A01 T02010164  RH  079%=      5-min Rain = 0
KDC1 140809Z 27007KT 20/17 A3013 RMK A01 T02000165  RH  080%=      5-min Rain = 0
KDC1 140810Z 27006KT 20/17 A3013 RMK A01 T01990165  RH  081%=      5-min Rain = 0
KDC1 140811Z 26006KT 20/16 A3013 RMK A01 T01980164  RH  081%=      5-min Rain = 0
KDC1 140812Z 26006KT 20/16 A3013 RMK A01 T01980163  RH  080%=      5-min Rain = 0
KDC1 140813Z 27006KT 20/16 A3013 RMK A01 T01980163  RH  080%=      5-min Rain = 0
KDC1 140814Z 27006KT 20/16 A3013 RMK A01 T01980164  RH  080%=      5-min Rain = 0
KDC1 140815Z 27006KT 20/16 A3013 RMK A01 T01980164  RH  081%=      5-min Rain = 0
KDC1 140816Z 28006KT 20/16 A3013 RMK A01 T01980164  RH  081%=      5-min Rain = 0
KDC1 140817Z 28007KT 20/16 A3013 RMK A01 T01970163  RH  081%=      5-min Rain = 0
KDC1 140818Z 29006KT 20/16 A3013 RMK A01 T01970163  RH  081%=      5-min Rain = 0
KDC1 140819Z 29005KT 20/16 A3014 RMK A01 T01960162  RH  081%=      5-min Rain = 0
KDC1 140820Z 30005KT 20/16 A3014 RMK A01 T01970162  RH  080%=      5-min Rain = 0
KDC1 140821Z 30004KT 20/16 A3014 RMK A01 T01970162  RH  080%=      5-min Rain = 0
KDC1 140822Z 30003KT 20/16 A3014 RMK A01 T01970161  RH  080%=      5-min Rain = 0
KDC1 140823Z 30001KT 20/16 A3014 RMK A01 T01970161  RH  080%=      5-min Rain = 0
KDC1 140824Z 29001KT 20/16 A3014 RMK A01 T01980161  RH  079%=      5-min Rain = 0
KDC1 140825Z 31000KT 20/16 A3014 RMK A01 T01970160  RH  079%=      5-min Rain = 0
KDC1 140826Z 31001KT 20/16 A3014 RMK A01 T01970159  RH  079%=      5-min Rain = 0
KDC1 140827Z 31002KT 20/16 A3014 RMK A01 T01980160  RH  079%=      5-min Rain = 0
KDC1 140828Z 31003KT 20/16 A3014 RMK A01 T01980159  RH  078%=      5-min Rain = 0
KDC1 140829Z 31004KT 20/16 A3014 RMK A01 T01990160  RH  078%=      5-min Rain = 0
KDC1 140830Z 31005KT 20/16 A3014 RMK A01 T01990160  RH  078%=      5-min Rain = 0
KDC1 140831Z 31005KT 20/16 A3014 RMK A01 T02000159  RH  077%=      5-min Rain = 0
KDC1 140832Z 31006KT 20/16 A3014 RMK A01 T02000159  RH  077%=      5-min Rain = 0
KDC1 140833Z 31006KT 20/16 A3014 RMK A01 T02000160  RH  078%=      5-min Rain = 0
KDC1 140834Z 30006KT 20/16 A3014 RMK A01 T02000160  RH  078%=      5-min Rain = 0
KDC1 140835Z 30006KT 20/16 A3014 RMK A01 T02000159  RH  078%=      5-min Rain = 0
KDC1 140836Z 30007KT 20/16 A3014 RMK A01 T02000161  RH  078%=      5-min Rain = 0
KDC1 140837Z 30007KT 20/16 A3014 RMK A01 T01990161  RH  079%=      5-min Rain = 0
KDC1 140838Z 30007KT 20/16 A3014 RMK A01 T01980161  RH  079%=      5-min Rain = 0
KDC1 140839Z 30007KT 20/16 A3013 RMK A01 T01970161  RH  079%=      5-min Rain = 0
KDC1 140840Z 30007KT 20/16 A3013 RMK A01 T01960161  RH  080%=      5-min Rain = 0
KDC1 140841Z 30007KT 20/16 A3013 RMK A01 T01960161  RH  080%=      5-min Rain = 0
KDC1 140842Z 30007KT 20/16 A3013 RMK A01 T01960161  RH  080%=      5-min Rain = 0
KDC1 140843Z 31007KT 20/16 A3013 RMK A01 T01960161  RH  080%=      5-min Rain = 0
KDC1 140844Z 31007KT 20/16 A3013 RMK A01 T01960161  RH  080%=      5-min Rain = 0
KDC1 140845Z 31006KT 20/16 A3014 RMK A01 T01960160  RH  080%=      5-min Rain = 0
KDC1 140846Z 31006KT 20/16 A3014 RMK A01 T01960160  RH  080%=      5-min Rain = 0
KDC1 140847Z 31005KT 20/16 A3014 RMK A01 T01950160  RH  080%=      5-min Rain = 0
KDC1 140848Z 31005KT 20/16 A3014 RMK A01 T01960160  RH  080%=      5-min Rain = 0
KDC1 140849Z 31005KT 20/16 A3014 RMK A01 T01960161  RH  080%=      5-min Rain = 0
KDC1 140850Z 31004KT 20/16 A3014 RMK A01 T01960161  RH  080%=      5-min Rain = 0
KDC1 140851Z 31005KT 20/16 A3014 RMK A01 T01960161  RH  080%=      5-min Rain = 0
KDC1 140852Z 31005KT 20/16 A3014 RMK A01 T01960161  RH  080%=      5-min Rain = 0
KDC1 140853Z 31006KT 20/16 A3014 RMK A01 T01960161  RH  080%=      5-min Rain = 0
KDC1 140854Z 32006KT 20/16 A3014 RMK A01 T01960161  RH  080%=      5-min Rain = 0
KDC1 140855Z 32006KT 20/16 A3014 RMK A01 T01960161  RH  080%=      5-min Rain = 0
KDC1 140856Z 32006KT 20/16 A3014 RMK A01 T01960161  RH  080%=      5-min Rain = 0
KDC1 140857Z 32005KT 20/16 A3014 RMK A01 T01960162  RH  080%=      5-min Rain = 0
KDC1 140858Z 32004KT 20/16 A3014 RMK A01 T01960162  RH  081%=      5-min Rain = 0
KDC1 140859Z 31004KT 20/16 A3014 RMK A01 T01960162  RH  081%=      5-min Rain = 0
KDC1 140900Z 29004KT 20/16 A3014 RMK A01 T01960162  RH  081%=      5-min Rain = 0
KDC1 140901Z 28003KT 20/16 A3014 RMK A01 T01960161  RH  080%=      5-min Rain = 0
KDC1 140902Z 28004KT 20/16 A3014 RMK A01 T01960160  RH  080%=      5-min Rain = 0
KDC1 140903Z 28004KT 20/16 A3014 RMK A01 T01960159  RH  079%=      5-min Rain = 0
KDC1 140904Z 29005KT 20/16 A3014 RMK A01 T01970159  RH  079%=      5-min Rain = 0
KDC1 140905Z 29005KT 20/16 A3013 RMK A01 T01980159  RH  078%=      5-min Rain = 0
KDC1 140906Z 30004KT 20/16 A3014 RMK A01 T01980160  RH  078%=      5-min Rain = 0
KDC1 140907Z 29004KT 20/16 A3014 RMK A01 T01990161  RH  078%=      5-min Rain = 0
KDC1 140908Z 30004KT 20/16 A3014 RMK A01 T01990161  RH  079%=      5-min Rain = 0
KDC1 140909Z 30003KT 20/16 A3014 RMK A01 T01990161  RH  079%=      5-min Rain = 0
KDC1 140910Z 31002KT 20/16 A3014 RMK A01 T01990162  RH  079%=      5-min Rain = 0
KDC1 140911Z 30001KT 20/16 A3014 RMK A01 T01980162  RH  080%=      5-min Rain = 0
KDC1 140912Z 27001KT 20/16 A3014 RMK A01 T01980162  RH  080%=      5-min Rain = 0
KDC1 140913Z 25002KT 20/16 A3014 RMK A01 T01970159  RH  079%=      5-min Rain = 0
KDC1 140914Z 23003KT 20/16 A3014 RMK A01 T01980158  RH  078%=      5-min Rain = 0
KDC1 140915Z 21003KT 20/16 A3013 RMK A01 T01990158  RH  077%=      5-min Rain = 0
KDC1 140916Z 23002KT 20/16 A3013 RMK A01 T01990157  RH  077%=      5-min Rain = 0
KDC1 140917Z 25002KT 20/16 A3013 RMK A01 T02000157  RH  076%=      5-min Rain = 0
KDC1 140918Z 26003KT 20/16 A3013 RMK A01 T02000158  RH  077%=      5-min Rain = 0
KDC1 140919Z 28003KT 20/16 A3013 RMK A01 T02010158  RH  077%=      5-min Rain = 0
KDC1 140920Z 28004KT 20/16 A3013 RMK A01 T02000159  RH  077%=      5-min Rain = 0
KDC1 140921Z 28004KT 20/16 A3013 RMK A01 T02000162  RH  079%=      5-min Rain = 0
KDC1 140922Z 28003KT 20/16 A3013 RMK A01 T01990163  RH  080%=      5-min Rain = 0
KDC1 140923Z 27003KT 20/16 A3013 RMK A01 T01970163  RH  081%=      5-min Rain = 0
KDC1 140924Z 25002KT 20/16 A3013 RMK A01 T01960163  RH  081%=      5-min Rain = 0
KDC1 140925Z 24002KT 20/16 A3013 RMK A01 T01950162  RH  081%=      5-min Rain = 0
KDC1 140926Z 23002KT 20/16 A3013 RMK A01 T01950160  RH  080%=      5-min Rain = 0
KDC1 140927Z 22002KT 20/16 A3013 RMK A01 T01950157  RH  079%=      5-min Rain = 0
KDC1 140928Z 23002KT 20/16 A3013 RMK A01 T01960157  RH  078%=      5-min Rain = 0
KDC1 140929Z 24002KT 20/16 A3013 RMK A01 T01970158  RH  078%=      5-min Rain = 0
KDC1 140930Z 25002KT 20/16 A3013 RMK A01 T01980157  RH  077%=      5-min Rain = 0
KDC1 140931Z 25002KT 20/16 A3013 RMK A01 T01980158  RH  077%=      5-min Rain = 0
KDC1 140932Z 25001KT 20/16 A3013 RMK A01 T01980158  RH  078%=      5-min Rain = 0
KDC1 140933Z 25000KT 20/16 A3013 RMK A01 T01980159  RH  078%=      5-min Rain = 0
KDC1 140934Z 00000KT 20/16 A3013 RMK A01 T01980162  RH  079%=      5-min Rain = 0
KDC1 140935Z 00000KT 20/17 A3013 RMK A01 T01980167  RH  082%=      5-min Rain = 0
KDC1 140936Z 24000KT 20/17 A3013 RMK A01 T01970167  RH  083%=      5-min Rain = 0
KDC1 140937Z 25001KT 20/16 A3013 RMK A01 T01960163  RH  081%=      5-min Rain = 0
KDC1 140938Z 25002KT 20/16 A3013 RMK A01 T01950161  RH  081%=      5-min Rain = 0
KDC1 140939Z 26002KT 19/16 A3013 RMK A01 T01940161  RH  081%=      5-min Rain = 0
KDC1 140940Z 26003KT 19/16 A3013 RMK A01 T01940160  RH  081%=      5-min Rain = 0
KDC1 140941Z 26004KT 19/16 A3013 RMK A01 T01940158  RH  080%=      5-min Rain = 0
KDC1 140942Z 27004KT 20/16 A3013 RMK A01 T01950159  RH  080%=      5-min Rain = 0
KDC1 140943Z 27005KT 20/16 A3013 RMK A01 T01950159  RH  079%=      5-min Rain = 0
KDC1 140944Z 27005KT 20/16 A3013 RMK A01 T01960160  RH  080%=      5-min Rain = 0
KDC1 140945Z 28005KT 20/16 A3013 RMK A01 T01960160  RH  080%=      5-min Rain = 0
KDC1 140946Z 28005KT 20/16 A3013 RMK A01 T01960160  RH  080%=      5-min Rain = 0
KDC1 140947Z 28005KT 20/16 A3013 RMK A01 T01950160  RH  080%=      5-min Rain = 0
KDC1 140948Z 28005KT 19/16 A3013 RMK A01 T01940160  RH  081%=      5-min Rain = 0
KDC1 140949Z 28006KT 19/16 A3013 RMK A01 T01940159  RH  081%=      5-min Rain = 0
KDC1 140950Z 28006KT 19/16 A3013 RMK A01 T01930159  RH  080%=      5-min Rain = 0
KDC1 140951Z 28006KT 19/16 A3013 RMK A01 T01930159  RH  080%=      5-min Rain = 0
KDC1 140952Z 28007KT 19/16 A3013 RMK A01 T01930159  RH  080%=      5-min Rain = 0
KDC1 140953Z 28007KT 19/16 A3013 RMK A01 T01930158  RH  080%=      5-min Rain = 0
KDC1 140954Z 28008KT 19/16 A3013 RMK A01 T01930158  RH  080%=      5-min Rain = 0
KDC1 140955Z 28008KT 19/16 A3013 RMK A01 T01930158  RH  080%=      5-min Rain = 0
KDC1 140956Z 28007KT 19/16 A3013 RMK A01 T01930157  RH  080%=      5-min Rain = 0
KDC1 140957Z 28007KT 19/16 A3013 RMK A01 T01940158  RH  080%=      5-min Rain = 0
KDC1 140958Z 28006KT 19/16 A3013 RMK A01 T01940158  RH  080%=      5-min Rain = 0
KDC1 140959Z 29006KT 19/16 A3013 RMK A01 T01940158  RH  080%=      5-min Rain = 0
KDC1 141000Z 29005KT 19/16 A3013 RMK A01 T01940157  RH  080%=      5-min Rain = 0
KDC1 141001Z 28004KT 19/16 A3013 RMK A01 T01940157  RH  079%=      5-min Rain = 0
KDC1 141002Z 28004KT 20/16 A3013 RMK A01 T01950157  RH  079%=      5-min Rain = 0
KDC1 141003Z 28003KT 20/16 A3013 RMK A01 T01950157  RH  078%=      5-min Rain = 0
KDC1 141004Z 27003KT 20/16 A3013 RMK A01 T01960156  RH  078%=      5-min Rain = 0
KDC1 141005Z 26003KT 20/16 A3013 RMK A01 T01970156  RH  077%=      5-min Rain = 0
KDC1 141006Z 27003KT 20/16 A3013 RMK A01 T01980156  RH  077%=      5-min Rain = 0
KDC1 141007Z 27004KT 20/16 A3013 RMK A01 T01990155  RH  076%=      5-min Rain = 0
KDC1 141008Z 28004KT 20/16 A3013 RMK A01 T02000156  RH  076%=      5-min Rain = 0
KDC1 141009Z 29005KT 20/16 A3013 RMK A01 T02010157  RH  076%=      5-min Rain = 0
KDC1 141010Z 29005KT 20/16 A3013 RMK A01 T02010157  RH  076%=      5-min Rain = 0
KDC1 141011Z 29004KT 20/16 A3013 RMK A01 T02010158  RH  076%=      5-min Rain = 0
KDC1 141012Z 29004KT 20/16 A3013 RMK A01 T02000159  RH  077%=      5-min Rain = 0
KDC1 141013Z 29004KT 20/16 A3013 RMK A01 T01990160  RH  078%=      5-min Rain = 0
KDC1 141014Z 28004KT 20/16 A3013 RMK A01 T01970160  RH  079%=      5-min Rain = 0
KDC1 141015Z 28004KT 20/16 A3013 RMK A01 T01960161  RH  080%=      5-min Rain = 0
KDC1 141016Z 28004KT 20/16 A3013 RMK A01 T01950160  RH  081%=      5-min Rain = 0
KDC1 141017Z 28004KT 19/16 A3013 RMK A01 T01940160  RH  081%=      5-min Rain = 0
KDC1 141018Z 28004KT 19/16 A3013 RMK A01 T01930159  RH  081%=      5-min Rain = 0
KDC1 141019Z 27004KT 19/16 A3013 RMK A01 T01930158  RH  080%=      5-min Rain = 0
KDC1 141020Z 26004KT 19/16 A3013 RMK A01 T01940157  RH  079%=      5-min Rain = 0
KDC1 141021Z 26004KT 20/16 A3012 RMK A01 T01960156  RH  078%=      5-min Rain = 0
KDC1 141022Z 26005KT 20/16 A3012 RMK A01 T01970156  RH  077%=      5-min Rain = 0
KDC1 141023Z 26005KT 20/16 A3012 RMK A01 T01980156  RH  077%=      5-min Rain = 0
KDC1 141024Z 27005KT 20/16 A3012 RMK A01 T01980155  RH  076%=      5-min Rain = 0
KDC1 141025Z 27006KT 20/15 A3012 RMK A01 T02000153  RH  074%=      5-min Rain = 0
KDC1 141026Z 26005KT 20/15 A3012 RMK A01 T02010153  RH  074%=      5-min Rain = 0
KDC1 141027Z 25005KT 20/15 A3012 RMK A01 T02020153  RH  074%=      5-min Rain = 0
KDC1 141028Z 25005KT 20/15 A3012 RMK A01 T02020153  RH  073%=      5-min Rain = 0
KDC1 141029Z 25005KT 20/15 A3012 RMK A01 T02020153  RH  073%=      5-min Rain = 0
KDC1 141030Z 26005KT 20/15 A3012 RMK A01 T02020152  RH  073%=      5-min Rain = 0
KDC1 141031Z 26005KT 20/15 A3012 RMK A01 T02020153  RH  073%=      5-min Rain = 0
KDC1 141032Z 26004KT 20/15 A3012 RMK A01 T02020153  RH  074%=      5-min Rain = 0
KDC1 141033Z 26004KT 20/15 A3012 RMK A01 T02010153  RH  074%=      5-min Rain = 0
KDC1 141034Z 27005KT 20/15 A3012 RMK A01 T02000154  RH  074%=      5-min Rain = 0
KDC1 141035Z 27005KT 20/15 A3012 RMK A01 T02000154  RH  075%=      5-min Rain = 0
KDC1 141036Z 27005KT 20/16 A3012 RMK A01 T01990155  RH  075%=      5-min Rain = 0
KDC1 141037Z 27005KT 20/16 A3012 RMK A01 T01990155  RH  076%=      5-min Rain = 0
KDC1 141038Z 27004KT 20/16 A3012 RMK A01 T01980155  RH  076%=      5-min Rain = 0
KDC1 141039Z 27004KT 20/16 A3012 RMK A01 T01980155  RH  076%=      5-min Rain = 0
KDC1 141040Z 27003KT 20/16 A3012 RMK A01 T01980155  RH  076%=      5-min Rain = 0
KDC1 141041Z 26001KT 20/16 A3013 RMK A01 T01980157  RH  077%=      5-min Rain = 0
KDC1 141042Z 25000KT 20/16 A3013 RMK A01 T01960159  RH  079%=      5-min Rain = 0
KDC1 141043Z 03000KT 20/16 A3013 RMK A01 T01950158  RH  079%=      5-min Rain = 0
KDC1 141044Z 05001KT 19/16 A3013 RMK A01 T01940158  RH  080%=      5-min Rain = 0
KDC1 141045Z 04001KT 19/16 A3013 RMK A01 T01930158  RH  080%=      5-min Rain = 0
KDC1 141046Z 03002KT 19/16 A3013 RMK A01 T01930158  RH  080%=      5-min Rain = 0
KDC1 141047Z 02002KT 19/16 A3013 RMK A01 T01930158  RH  080%=      5-min Rain = 0
KDC1 141048Z 36002KT 19/16 A3013 RMK A01 T01930158  RH  080%=      5-min Rain = 0
KDC1 141049Z 33003KT 19/16 A3013 RMK A01 T01920158  RH  080%=      5-min Rain = 0
KDC1 141050Z 33003KT 19/16 A3013 RMK A01 T01920157  RH  080%=      5-min Rain = 0
KDC1 141051Z 33003KT 19/16 A3013 RMK A01 T01920158  RH  081%=      5-min Rain = 0
KDC1 141052Z 33004KT 19/16 A3013 RMK A01 T01910158  RH  081%=      5-min Rain = 0
KDC1 141053Z 33004KT 19/16 A3013 RMK A01 T01910159  RH  082%=      5-min Rain = 0
KDC1 141054Z 33004KT 19/16 A3013 RMK A01 T01910159  RH  082%=      5-min Rain = 0
KDC1 141055Z 32004KT 19/16 A3013 RMK A01 T01900159  RH  082%=      5-min Rain = 0
KDC1 141056Z 32004KT 19/16 A3013 RMK A01 T01900160  RH  082%=      5-min Rain = 0
KDC1 141057Z 33004KT 19/16 A3013 RMK A01 T01900160  RH  083%=      5-min Rain = 0
KDC1 141058Z 32004KT 19/16 A3013 RMK A01 T01900160  RH  083%=      5-min Rain = 0
KDC1 141059Z 32004KT 19/16 A3013 RMK A01 T01900159  RH  082%=      5-min Rain = 0
KDC1 141100Z 32003KT 19/16 A3012 RMK A01 T01900159  RH  082%=      5-min Rain = 0
KDC1 141101Z 31003KT 19/16 A3012 RMK A01 T01900158  RH  082%=      5-min Rain = 0
KDC1 141102Z 30004KT 19/16 A3012 RMK A01 T01910159  RH  082%=      5-min Rain = 0
KDC1 141103Z 29004KT 19/16 A3012 RMK A01 T01910160  RH  082%=      5-min Rain = 0
KDC1 141104Z 28004KT 19/16 A3012 RMK A01 T01910159  RH  081%=      5-min Rain = 0
KDC1 141105Z 27004KT 19/16 A3012 RMK A01 T01910157  RH  081%=      5-min Rain = 0
KDC1 141106Z 28004KT 19/16 A3012 RMK A01 T01920157  RH  080%=      5-min Rain = 0
KDC1 141107Z 28004KT 19/16 A3012 RMK A01 T01930156  RH  079%=      5-min Rain = 0
KDC1 141108Z 29004KT 20/16 A3012 RMK A01 T01950155  RH  078%=      5-min Rain = 0
KDC1 141109Z 30003KT 20/16 A3012 RMK A01 T01960155  RH  077%=      5-min Rain = 0
KDC1 141110Z 30003KT 20/16 A3012 RMK A01 T01970155  RH  077%=      5-min Rain = 0
KDC1 141111Z 31003KT 20/16 A3012 RMK A01 T01970155  RH  077%=      5-min Rain = 0
KDC1 141112Z 31003KT 20/16 A3012 RMK A01 T01970156  RH  077%=      5-min Rain = 0
KDC1 141113Z 31003KT 20/16 A3012 RMK A01 T01970156  RH  077%=      5-min Rain = 0
KDC1 141114Z 31004KT 20/16 A3012 RMK A01 T01970157  RH  077%=      5-min Rain = 0
KDC1 141115Z 31004KT 20/16 A3012 RMK A01 T01970157  RH  077%=      5-min Rain = 0
KDC1 141116Z 31003KT 20/16 A3013 RMK A01 T01970157  RH  078%=      5-min Rain = 0
KDC1 141117Z 31003KT 20/16 A3013 RMK A01 T01970158  RH  078%=      5-min Rain = 0
KDC1 141118Z 31003KT 20/16 A3013 RMK A01 T01960157  RH  078%=      5-min Rain = 0
KDC1 141119Z 31003KT 20/16 A3013 RMK A01 T01950157  RH  078%=      5-min Rain = 0
KDC1 141120Z 31003KT 20/16 A3013 RMK A01 T01950157  RH  079%=      5-min Rain = 0
KDC1 141121Z 30003KT 20/16 A3013 RMK A01 T01950157  RH  078%=      5-min Rain = 0
KDC1 141122Z 31002KT 20/16 A3013 RMK A01 T01950156  RH  078%=      5-min Rain = 0
KDC1 141123Z 31000KT 19/16 A3013 RMK A01 T01940156  RH  078%=      5-min Rain = 0
KDC1 141124Z 00000KT 20/15 A3013 RMK A01 T01950154  RH  077%=      5-min Rain = 0
KDC1 141125Z 00000KT 20/16 A3013 RMK A01 T01950155  RH  078%=      5-min Rain = 0
KDC1 141126Z 00000KT 20/15 A3013 RMK A01 T01950154  RH  077%=      5-min Rain = 0
KDC1 141127Z 00000KT 20/15 A3013 RMK A01 T01950153  RH  076%=      5-min Rain = 0
KDC1 141128Z 27001KT 20/15 A3013 RMK A01 T01960153  RH  076%=      5-min Rain = 0
KDC1 141129Z 26001KT 20/15 A3013 RMK A01 T01970151  RH  075%=      5-min Rain = 0
KDC1 141130Z 26001KT 20/15 A3013 RMK A01 T01970149  RH  074%=      5-min Rain = 0
KDC1 141131Z 25002KT 20/15 A3013 RMK A01 T01970149  RH  074%=      5-min Rain = 0
KDC1 141132Z 24002KT 20/15 A3013 RMK A01 T01980148  RH  073%=      5-min Rain = 0
KDC1 141133Z 23002KT 20/15 A3013 RMK A01 T01990150  RH  073%=      5-min Rain = 0
KDC1 141134Z 22002KT 20/15 A3013 RMK A01 T02000148  RH  072%=      5-min Rain = 0
KDC1 141135Z 21002KT 20/15 A3013 RMK A01 T02010149  RH  072%=      5-min Rain = 0
KDC1 141136Z 21002KT 20/15 A3013 RMK A01 T02020150  RH  072%=      5-min Rain = 0
KDC1 141137Z 22002KT 20/15 A3013 RMK A01 T02020152  RH  073%=      5-min Rain = 0
KDC1 141138Z 23002KT 20/15 A3013 RMK A01 T02010152  RH  073%=      5-min Rain = 0
KDC1 141139Z 23002KT 20/15 A3013 RMK A01 T02010152  RH  074%=      5-min Rain = 0
KDC1 141140Z 24002KT 20/15 A3013 RMK A01 T02000150  RH  073%=      5-min Rain = 0
KDC1 141141Z 25002KT 20/15 A3013 RMK A01 T02000150  RH  073%=      5-min Rain = 0
KDC1 141142Z 27002KT 20/15 A3013 RMK A01 T02000149  RH  072%=      5-min Rain = 0
KDC1 141143Z 28002KT 20/15 A3013 RMK A01 T02010150  RH  072%=      5-min Rain = 0
KDC1 141144Z 29001KT 20/15 A3013 RMK A01 T02010151  RH  073%=      5-min Rain = 0
KDC1 141145Z 29001KT 20/16 A3013 RMK A01 T02010155  RH  075%=      5-min Rain = 0
KDC1 141146Z 29000KT 20/16 A3014 RMK A01 T01990156  RH  077%=      5-min Rain = 0
KDC1 141147Z 16000KT 20/16 A3014 RMK A01 T01960155  RH  077%=      5-min Rain = 0
KDC1 141148Z 14002KT 20/16 A3014 RMK A01 T01950156  RH  078%=      5-min Rain = 0
KDC1 141149Z 16005KT 19/16 A3014 RMK A01 T01940159  RH  080%=      5-min Rain = 0
KDC1 141150Z 17004KT 19/16 A3014 RMK A01 T01910158  RH  081%=      5-min Rain = 0
KDC1 141151Z 18003KT 19/16 A3014 RMK A01 T01890157  RH  081%=      5-min Rain = 0
KDC1 141152Z 18001KT 19/16 A3014 RMK A01 T01900155  RH  080%=      5-min Rain = 0
KDC1 141153Z 21000KT 19/15 A3014 RMK A01 T01900154  RH  080%=      5-min Rain = 0
KDC1 141154Z 19000KT 19/16 A3014 RMK A01 T01910155  RH  080%=      5-min Rain = 0
KDC1 141155Z 20001KT 19/16 A3014 RMK A01 T01910156  RH  080%=      5-min Rain = 0
KDC1 141156Z 21001KT 19/16 A3014 RMK A01 T01910156  RH  080%=      5-min Rain = 0
KDC1 141157Z 21002KT 19/16 A3014 RMK A01 T01910155  RH  079%=      5-min Rain = 0
KDC1 141158Z 22002KT 19/15 A3014 RMK A01 T01900154  RH  079%=      5-min Rain = 0
KDC1 141159Z 22002KT 19/15 A3014 RMK A01 T01910154  RH  079%=      5-min Rain = 0
KDC1 141200Z 22002KT 19/16 A3014 RMK A01 T01910155  RH  079%=      5-min Rain = 0
KDC1 141201Z 20002KT 19/16 A3014 RMK A01 T01910155  RH  079%=      5-min Rain = 0
KDC1 141202Z 19002KT 19/16 A3014 RMK A01 T01920155  RH  079%=      5-min Rain = 0
KDC1 141203Z 19003KT 19/16 A3014 RMK A01 T01920156  RH  080%=      5-min Rain = 0
KDC1 141204Z 18003KT 19/16 A3014 RMK A01 T01920157  RH  080%=      5-min Rain = 0
KDC1 141205Z 18004KT 19/16 A3014 RMK A01 T01920157  RH  080%=      5-min Rain = 0
KDC1 141206Z 19004KT 19/16 A3014 RMK A01 T01920157  RH  081%=      5-min Rain = 0
KDC1 141207Z 19003KT 19/16 A3014 RMK A01 T01910157  RH  081%=      5-min Rain = 0
KDC1 141208Z 18003KT 19/16 A3014 RMK A01 T01910158  RH  081%=      5-min Rain = 0
KDC1 141209Z 18003KT 19/16 A3014 RMK A01 T01910158  RH  081%=      5-min Rain = 0
KDC1 141210Z 17003KT 19/16 A3014 RMK A01 T01920158  RH  081%=      5-min Rain = 0
KDC1 141211Z 16002KT 19/16 A3015 RMK A01 T01920157  RH  080%=      5-min Rain = 0
KDC1 141212Z 16002KT 19/16 A3015 RMK A01 T01930157  RH  079%=      5-min Rain = 0
KDC1 141213Z 16003KT 19/16 A3015 RMK A01 T01930158  RH  080%=      5-min Rain = 0
KDC1 141214Z 18002KT 19/16 A3015 RMK A01 T01940159  RH  080%=      5-min Rain = 0
KDC1 141215Z 19001KT 19/16 A3015 RMK A01 T01940159  RH  081%=      5-min Rain = 0
KDC1 141216Z 20001KT 19/16 A3015 RMK A01 T01930159  RH  081%=      5-min Rain = 0
KDC1 141217Z 19001KT 19/16 A3015 RMK A01 T01920159  RH  081%=      5-min Rain = 0
KDC1 141218Z 18002KT 19/16 A3015 RMK A01 T01920159  RH  081%=      5-min Rain = 0
KDC1 141219Z 18002KT 19/16 A3015 RMK A01 T01910158  RH  081%=      5-min Rain = 0
KDC1 141220Z 17002KT 19/16 A3015 RMK A01 T01900157  RH  081%=      5-min Rain = 0
KDC1 141221Z 16001KT 19/16 A3015 RMK A01 T01900157  RH  081%=      5-min Rain = 0
KDC1 141222Z 17002KT 19/16 A3016 RMK A01 T01900158  RH  082%=      5-min Rain = 0
KDC1 141223Z 18001KT 19/16 A3016 RMK A01 T01900158  RH  082%=      5-min Rain = 0
KDC1 141224Z 19001KT 19/16 A3016 RMK A01 T01900159  RH  082%=      5-min Rain = 0
KDC1 141225Z 20001KT 19/16 A3016 RMK A01 T01900158  RH  082%=      5-min Rain = 0
KDC1 141226Z 23001KT 19/16 A3016 RMK A01 T01900158  RH  082%=      5-min Rain = 0
KDC1 141227Z 24001KT 19/16 A3016 RMK A01 T01900160  RH  082%=      5-min Rain = 0
KDC1 141228Z 24000KT 19/16 A3016 RMK A01 T01900162  RH  084%=      5-min Rain = 0
KDC1 141229Z 00000KT 19/16 A3016 RMK A01 T01890163  RH  084%=      5-min Rain = 0
KDC1 141230Z 00000KT 19/16 A3016 RMK A01 T01890163  RH  085%=      5-min Rain = 0
KDC1 141231Z 14000KT 19/16 A3016 RMK A01 T01880164  RH  086%=      5-min Rain = 0
KDC1 141232Z 13001KT 19/16 A3016 RMK A01 T01870164  RH  086%=      5-min Rain = 0
KDC1 141233Z 13002KT 19/16 A3016 RMK A01 T01860163  RH  086%=      5-min Rain = 0
KDC1 141234Z 13001KT 19/16 A3017 RMK A01 T01860162  RH  086%=      5-min Rain = 0
KDC1 141235Z 13001KT 19/16 A3017 RMK A01 T01860163  RH  086%=      5-min Rain = 0
KDC1 141236Z 00000KT 19/16 A3016 RMK A01 T01860162  RH  086%=      5-min Rain = 0
KDC1 141237Z 00000KT 19/16 A3016 RMK A01 T01860161  RH  085%=      5-min Rain = 0
KDC1 141238Z 00000KT 19/16 A3016 RMK A01 T01860160  RH  085%=      5-min Rain = 0
KDC1 141239Z 00000KT 19/16 A3016 RMK A01 T01870160  RH  084%=      5-min Rain = 0
KDC1 141240Z 00000KT 19/16 A3016 RMK A01 T01880160  RH  084%=      5-min Rain = 0
KDC1 141241Z 13000KT 19/16 A3017 RMK A01 T01890158  RH  082%=      5-min Rain = 0
KDC1 141242Z 14001KT 19/16 A3017 RMK A01 T01890157  RH  081%=      5-min Rain = 0
KDC1 141243Z 14002KT 19/16 A3017 RMK A01 T01900157  RH  081%=      5-min Rain = 0
KDC1 141244Z 15001KT 19/16 A3017 RMK A01 T01910160  RH  082%=      5-min Rain = 0
KDC1 141245Z 16001KT 19/16 A3017 RMK A01 T01920156  RH  080%=      5-min Rain = 0
KDC1 141246Z 16001KT 19/16 A3017 RMK A01 T01930158  RH  080%=      5-min Rain = 0
KDC1 141247Z 16001KT 19/16 A3017 RMK A01 T01940156  RH  079%=      5-min Rain = 0
KDC1 141248Z 16001KT 20/16 A3017 RMK A01 T01950159  RH  080%=      5-min Rain = 0
KDC1 141249Z 16002KT 20/16 A3017 RMK A01 T01950164  RH  082%=      5-min Rain = 0
KDC1 141250Z 16002KT 20/17 A3017 RMK A01 T01960165  RH  083%=      5-min Rain = 0
KDC1 141251Z 15003KT 20/17 A3017 RMK A01 T01960165  RH  083%=      5-min Rain = 0
KDC1 141252Z 15003KT 20/16 A3017 RMK A01 T01950164  RH  082%=      5-min Rain = 0
KDC1 141253Z 15002KT 20/16 A3018 RMK A01 T01950163  RH  082%=      5-min Rain = 0
KDC1 141254Z 14001KT 20/16 A3018 RMK A01 T01950163  RH  082%=      5-min Rain = 0
KDC1 141255Z 14001KT 20/16 A3018 RMK A01 T01950162  RH  081%=      5-min Rain = 0
KDC1 141256Z 00000KT 20/16 A3018 RMK A01 T01960161  RH  080%=      5-min Rain = 0
KDC1 141257Z 00000KT 20/16 A3018 RMK A01 T01970161  RH  080%=      5-min Rain = 0
KDC1 141258Z 00000KT 20/17 A3018 RMK A01 T01970167  RH  083%=      5-min Rain = 0
KDC1 141259Z 00000KT 20/17 A3018 RMK A01 T01960166  RH  083%=      5-min Rain = 0
KDC1 141300Z 00000KT 19/17 A3018 RMK A01 T01940168  RH  084%=      5-min Rain = 0
KDC1 141301Z 05000KT 19/17 A3018 RMK A01 T01940169  RH  085%=      5-min Rain = 0
KDC1 141302Z 04002KT 19/17 A3018 RMK A01 T01930170  RH  086%=      5-min Rain = 0
KDC1 141303Z 04002KT 19/17 A3018 RMK A01 T01920169  RH  087%=      5-min Rain = 0
KDC1 141304Z 02003KT 19/17 A3018 RMK A01 T01910171  RH  088%=      5-min Rain = 0
KDC1 141305Z 02004KT 19/17 A3018 RMK A01 T01900171  RH  089%=      5-min Rain = 0
KDC1 141306Z 02006KT 19/17 A3018 RMK A01 T01890170  RH  088%=      5-min Rain = 0
KDC1 141307Z 02004KT 19/17 A3018 RMK A01 T01890170  RH  089%=      5-min Rain = 0
KDC1 141308Z 02004KT 19/17 A3018 RMK A01 T01890170  RH  089%=      5-min Rain = 0
KDC1 141309Z 02004KT 19/17 A3018 RMK A01 T01890170  RH  089%=      5-min Rain = 0
KDC1 141310Z 02002KT 19/17 A3018 RMK A01 T01880170  RH  089%=      5-min Rain = 0
KDC1 141311Z 03001KT 19/17 A3018 RMK A01 T01880169  RH  089%=      5-min Rain = 0
KDC1 141312Z 04001KT 19/17 A3018 RMK A01 T01880169  RH  088%=      5-min Rain = 0
KDC1 141313Z 04000KT 19/17 A3018 RMK A01 T01880168  RH  088%=      5-min Rain = 0
KDC1 141314Z 00000KT 19/17 A3018 RMK A01 T01900169  RH  088%=      5-min Rain = 0
KDC1 141315Z 03000KT 19/17 A3018 RMK A01 T01900168  RH  087%=      5-min Rain = 0
KDC1 141316Z 02001KT 19/17 A3018 RMK A01 T01910168  RH  086%=      5-min Rain = 0
KDC1 141317Z 01001KT 19/17 A3019 RMK A01 T01910167  RH  086%=      5-min Rain = 0
KDC1 141318Z 00001KT 19/17 A3019 RMK A01 T01920168  RH  086%=      5-min Rain = 0
KDC1 141319Z 01002KT 19/17 A3019 RMK A01 T01910167  RH  086%=      5-min Rain = 0
KDC1 141320Z 00002KT 19/17 A3019 RMK A01 T01910168  RH  086%=      5-min Rain = 0
KDC1 141321Z 35001KT 19/17 A3019 RMK A01 T01910169  RH  087%=      5-min Rain = 0
KDC1 141322Z 35002KT 19/17 A3019 RMK A01 T01910169  RH  087%=      5-min Rain = 0
KDC1 141323Z 35002KT 19/17 A3019 RMK A01 T01920168  RH  086%=      5-min Rain = 0
KDC1 141324Z 35002KT 19/17 A3019 RMK A01 T01920168  RH  086%=      5-min Rain = 0
KDC1 141325Z 35003KT 19/17 A3019 RMK A01 T01920168  RH  086%=      5-min Rain = 0
KDC1 141326Z 34003KT 19/17 A3019 RMK A01 T01930167  RH  085%=      5-min Rain = 0
KDC1 141327Z 33002KT 19/17 A3019 RMK A01 T01930167  RH  085%=      5-min Rain = 0
KDC1 141328Z 33002KT 19/17 A3019 RMK A01 T01940168  RH  085%=      5-min Rain = 0
KDC1 141329Z 32002KT 20/17 A3019 RMK A01 T01950169  RH  085%=      5-min Rain = 0
KDC1 141330Z 31002KT 20/17 A3019 RMK A01 T01950171  RH  086%=      5-min Rain = 0
KDC1 141331Z 32002KT 20/17 A3019 RMK A01 T01960171  RH  086%=      5-min Rain = 0
KDC1 141332Z 34002KT 20/17 A3019 RMK A01 T01960172  RH  086%=      5-min Rain = 0
KDC1 141333Z 35003KT 20/17 A3019 RMK A01 T01960172  RH  086%=      5-min Rain = 0
KDC1 141334Z 35004KT 20/17 A3019 RMK A01 T01960169  RH  084%=      5-min Rain = 0
KDC1 141335Z 35003KT 20/17 A3019 RMK A01 T01960167  RH  084%=      5-min Rain = 0
KDC1 141336Z 34002KT 20/17 A3019 RMK A01 T01960168  RH  084%=      5-min Rain = 0
KDC1 141337Z 33001KT 20/17 A302 RMK A01 T01970169  RH  084%=      5-min Rain = 0
KDC1 141338Z 00000KT 20/17 A302 RMK A01 T01980170  RH  084%=      5-min Rain = 0
KDC1 141339Z 18001KT 20/17 A302 RMK A01 T01980169  RH  083%=      5-min Rain = 0
KDC1 141340Z 19002KT 20/17 A302 RMK A01 T01990168  RH  082%=      5-min Rain = 0
KDC1 141341Z 21001KT 20/17 A302 RMK A01 T02000169  RH  082%=      5-min Rain = 0
KDC1 141342Z 26000KT 20/17 A302 RMK A01 T02020170  RH  082%=      5-min Rain = 0
KDC1 141343Z 32001KT 20/17 A302 RMK A01 T02020169  RH  081%=      5-min Rain = 0
KDC1 141344Z 33003KT 20/17 A302 RMK A01 T02030168  RH  080%=      5-min Rain = 0
KDC1 141345Z 34003KT 20/17 A302 RMK A01 T02030171  RH  082%=      5-min Rain = 0
KDC1 141346Z 35003KT 20/17 A302 RMK A01 T02030171  RH  082%=      5-min Rain = 0
KDC1 141347Z 35002KT 20/17 A302 RMK A01 T02030169  RH  081%=      5-min Rain = 0
KDC1 141348Z 32002KT 20/17 A302 RMK A01 T02030169  RH  081%=      5-min Rain = 0
KDC1 141349Z 29001KT 20/17 A302 RMK A01 T02030170  RH  082%=      5-min Rain = 0
KDC1 141350Z 28001KT 20/17 A302 RMK A01 T02040170  RH  081%=      5-min Rain = 0
KDC1 141351Z 26001KT 20/17 A302 RMK A01 T02040168  RH  080%=      5-min Rain = 0
KDC1 141352Z 25002KT 21/17 A302 RMK A01 T02060170  RH  080%=      5-min Rain = 0
KDC1 141353Z 24001KT 21/17 A302 RMK A01 T02060170  RH  080%=      5-min Rain = 0
KDC1 141354Z 27002KT 21/17 A302 RMK A01 T02070169  RH  079%=      5-min Rain = 0
KDC1 141355Z 28002KT 21/17 A302 RMK A01 T02080170  RH  079%=      5-min Rain = 0
KDC1 141356Z 29002KT 21/17 A302 RMK A01 T02090172  RH  080%=      5-min Rain = 0
KDC1 141357Z 29003KT 21/18 A302 RMK A01 T02090176  RH  081%=      5-min Rain = 0
KDC1 141358Z 30002KT 21/18 A302 RMK A01 T02100175  RH  080%=      5-min Rain = 0
KDC1 141359Z 30002KT 21/18 A302 RMK A01 T02100176  RH  081%=      5-min Rain = 0
KDC1 141400Z 29002KT 21/18 A302 RMK A01 T02110175  RH  080%=      5-min Rain = 0
KDC1 141401Z 29002KT 21/17 A302 RMK A01 T02110174  RH  080%=      5-min Rain = 0
KDC1 141402Z 29002KT 21/18 A302 RMK A01 T02120177  RH  080%=      5-min Rain = 0
KDC1 141403Z 30002KT 21/18 A302 RMK A01 T02130178  RH  081%=      5-min Rain = 0
KDC1 141404Z 30003KT 21/18 A302 RMK A01 T02120176  RH  080%=      5-min Rain = 0
KDC1 141405Z 31004KT 21/18 A302 RMK A01 T02130176  RH  079%=      5-min Rain = 0
KDC1 141406Z 31005KT 21/17 A302 RMK A01 T02130174  RH  079%=      5-min Rain = 0
KDC1 141407Z 31005KT 21/17 A302 RMK A01 T02140173  RH  078%=      5-min Rain = 0
KDC1 141408Z 32005KT 22/18 A302 RMK A01 T02150175  RH  078%=      5-min Rain = 0
KDC1 141409Z 31005KT 22/17 A302 RMK A01 T02160172  RH  076%=      5-min Rain = 0
KDC1 141410Z 32005KT 22/17 A302 RMK A01 T02160168  RH  074%=      5-min Rain = 0
KDC1 141411Z 32004KT 22/17 A302 RMK A01 T02170167  RH  073%=      5-min Rain = 0
KDC1 141412Z 32004KT 22/16 A302 RMK A01 T02180164  RH  071%=      5-min Rain = 0
KDC1 141413Z 32004KT 22/16 A302 RMK A01 T02190163  RH  071%=      5-min Rain = 0
KDC1 141414Z 31003KT 22/16 A302 RMK A01 T02190163  RH  070%=      5-min Rain = 0
KDC1 141415Z 31003KT 22/17 A302 RMK A01 T02200167  RH  072%=      5-min Rain = 0
KDC1 141416Z 30004KT 22/17 A302 RMK A01 T02210169  RH  072%=      5-min Rain = 0
KDC1 141417Z 30004KT 22/17 A302 RMK A01 T02220168  RH  072%=      5-min Rain = 0
KDC1 141418Z 31005KT 22/17 A3019 RMK A01 T02220171  RH  073%=      5-min Rain = 0
KDC1 141419Z 31005KT 22/17 A3019 RMK A01 T02230170  RH  072%=      5-min Rain = 0
KDC1 141420Z 31006KT 22/17 A302 RMK A01 T02230171  RH  072%=      5-min Rain = 0
KDC1 141421Z 31006KT 22/17 A302 RMK A01 T02230171  RH  072%=      5-min Rain = 0
KDC1 141422Z 31006KT 22/17 A302 RMK A01 T02240170  RH  072%=      5-min Rain = 0
KDC1 141423Z 31005KT 23/17 A302 RMK A01 T02250174  RH  073%=      5-min Rain = 0
KDC1 141424Z 31004KT 23/18 A302 RMK A01 T02260176  RH  074%=      5-min Rain = 0
KDC1 141425Z 31004KT 23/18 A302 RMK A01 T02270176  RH  073%=      5-min Rain = 0
KDC1 141426Z 30003KT 23/18 A302 RMK A01 T02280177  RH  073%=      5-min Rain = 0
KDC1 141427Z 31003KT 23/17 A302 RMK A01 T02280174  RH  072%=      5-min Rain = 0
KDC1 141428Z 30003KT 23/18 A302 RMK A01 T02280175  RH  072%=      5-min Rain = 0
KDC1 141429Z 30004KT 23/18 A302 RMK A01 T02290175  RH  072%=      5-min Rain = 0
KDC1 141430Z 30004KT 23/17 A302 RMK A01 T02290173  RH  071%=      5-min Rain = 0
KDC1 141431Z 30004KT 23/17 A302 RMK A01 T02290172  RH  070%=      5-min Rain = 0
KDC1 141432Z 30004KT 23/18 A302 RMK A01 T02290175  RH  071%=      5-min Rain = 0
KDC1 141433Z 30004KT 23/18 A302 RMK A01 T02300179  RH  073%=      5-min Rain = 0
KDC1 141434Z 30004KT 23/18 A302 RMK A01 T02310177  RH  072%=      5-min Rain = 0
KDC1 141435Z 30004KT 23/18 A302 RMK A01 T02310175  RH  070%=      5-min Rain = 0
KDC1 141436Z 30004KT 23/18 A302 RMK A01 T02320175  RH  070%=      5-min Rain = 0
KDC1 141437Z 30003KT 23/18 A302 RMK A01 T02330177  RH  071%=      5-min Rain = 0
KDC1 141438Z 29003KT 23/18 A302 RMK A01 T02340176  RH  070%=      5-min Rain = 0
KDC1 141439Z 29003KT 24/18 A302 RMK A01 T02350178  RH  070%=      5-min Rain = 0
KDC1 141440Z 29003KT 24/18 A302 RMK A01 T02360179  RH  070%=      5-min Rain = 0
KDC1 141441Z 30003KT 24/18 A302 RMK A01 T02370177  RH  069%=      5-min Rain = 0
KDC1 141442Z 31003KT 24/18 A302 RMK A01 T02380179  RH  070%=      5-min Rain = 0
KDC1 141443Z 32003KT 24/18 A302 RMK A01 T02390177  RH  068%=      5-min Rain = 0
KDC1 141444Z 33003KT 24/18 A302 RMK A01 T02410180  RH  069%=      5-min Rain = 0
KDC1 141445Z 33003KT 24/18 A302 RMK A01 T02430178  RH  067%=      5-min Rain = 0
KDC1 141446Z 32003KT 24/18 A302 RMK A01 T02440179  RH  067%=      5-min Rain = 0
KDC1 141447Z 32002KT 25/18 A302 RMK A01 T02450178  RH  066%=      5-min Rain = 0
KDC1 141448Z 31003KT 25/18 A302 RMK A01 T02470177  RH  065%=      5-min Rain = 0
KDC1 141449Z 32003KT 25/17 A302 RMK A01 T02480173  RH  063%=      5-min Rain = 0
KDC1 141450Z 32003KT 25/18 A302 RMK A01 T02490176  RH  064%=      5-min Rain = 0
KDC1 141451Z 33003KT 25/18 A302 RMK A01 T02510176  RH  063%=      5-min Rain = 0
KDC1 141452Z 33004KT 25/18 A302 RMK A01 T02530175  RH  062%=      5-min Rain = 0
KDC1 141453Z 33004KT 25/18 A302 RMK A01 T02540175  RH  062%=      5-min Rain = 0
KDC1 141454Z 34006KT 25/17 A302 RMK A01 T02540168  RH  059%=      5-min Rain = 0
KDC1 141455Z 33005KT 25/16 A302 RMK A01 T02540163  RH  057%=      5-min Rain = 0
KDC1 141456Z 33005KT 26/17 A3021 RMK A01 T02550165  RH  057%=      5-min Rain = 0
KDC1 141457Z 33005KT 26/17 A3021 RMK A01 T02560167  RH  058%=      5-min Rain = 0
KDC1 141458Z 33004KT 26/17 A3021 RMK A01 T02570168  RH  058%=      5-min Rain = 0
KDC1 141459Z 32005KT 26/16 A3021 RMK A01 T02590163  RH  056%=      5-min Rain = 0
KDC1 141500Z 34004KT 26/17 A3021 RMK A01 T02600166  RH  056%=      5-min Rain = 0
KDC1 141501Z 35004KT 26/17 A3021 RMK A01 T02610168  RH  057%=      5-min Rain = 0
KDC1 141502Z 35004KT 26/16 A3021 RMK A01 T02610163  RH  055%=      5-min Rain = 0
KDC1 141503Z 34004KT 26/16 A3021 RMK A01 T02610160  RH  053%=      5-min Rain = 0
KDC1 141504Z 34002KT 26/16 A3021 RMK A01 T02620164  RH  055%=      5-min Rain = 0
KDC1 141505Z 33004KT 26/17 A3021 RMK A01 T02630166  RH  055%=      5-min Rain = 0
KDC1 141506Z 34004KT 26/16 A3021 RMK A01 T02640162  RH  053%=      5-min Rain = 0
KDC1 141507Z 32004KT 26/17 A3021 RMK A01 T02630167  RH  055%=      5-min Rain = 0
KDC1 141508Z 33005KT 26/17 A3021 RMK A01 T02640168  RH  056%=      5-min Rain = 0
KDC1 141509Z 33004KT 27/17 A3021 RMK A01 T02650171  RH  056%=      5-min Rain = 0
KDC1 141510Z 34005KT 27/17 A3021 RMK A01 T02670166  RH  054%=      5-min Rain = 0
KDC1 141511Z 34005KT 27/16 A3021 RMK A01 T02690161  RH  052%=      5-min Rain = 0
KDC1 141512Z 34006KT 27/16 A3021 RMK A01 T02700158  RH  050%=      5-min Rain = 0
KDC1 141513Z 34005KT 27/16 A3021 RMK A01 T02710156  RH  049%=      5-min Rain = 0
KDC1 141514Z 34005KT 27/15 A3021 RMK A01 T02710153  RH  049%=      5-min Rain = 0
KDC1 141515Z 34005KT 27/16 A3021 RMK A01 T02710159  RH  050%=      5-min Rain = 0
KDC1 141516Z 35005KT 27/16 A3021 RMK A01 T02710162  RH  051%=      5-min Rain = 0
KDC1 141517Z 34007KT 27/16 A3021 RMK A01 T02720159  RH  050%=      5-min Rain = 0
KDC1 141518Z 34006KT 27/15 A3021 RMK A01 T02720153  RH  048%=      5-min Rain = 0.01
KDC1 141519Z 34005KT 27/16 A3021 RMK A01 T02720159  RH  050%=      5-min Rain = 0
KDC1 141520Z 35006KT 27/16 A3021 RMK A01 T02720160  RH  050%=      5-min Rain = 0
KDC1 141521Z 35005KT 27/16 A3021 RMK A01 T02730161  RH  050%=      5-min Rain = 0
KDC1 141522Z 35006KT 27/16 A3022 RMK A01 T02720158  RH  050%=      5-min Rain = 0
KDC1 141523Z 35007KT 27/16 A3022 RMK A01 T02720155  RH  049%=      5-min Rain = 0
KDC1 141524Z 35006KT 27/16 A3022 RMK A01 T02720155  RH  049%=      5-min Rain = 0
KDC1 141525Z 35005KT 27/16 A3022 RMK A01 T02720158  RH  050%=      5-min Rain = 0
KDC1 141526Z 34005KT 27/16 A3022 RMK A01 T02730156  RH  049%=      5-min Rain = 0
KDC1 141527Z 34004KT 27/16 A3022 RMK A01 T02740156  RH  049%=      5-min Rain = 0
KDC1 141528Z 34005KT 28/16 A3022 RMK A01 T02750157  RH  048%=      5-min Rain = 0
KDC1 141529Z 35005KT 28/15 A3022 RMK A01 T02750153  RH  047%=      5-min Rain = 0
KDC1 141530Z 34004KT 28/16 A3022 RMK A01 T02760156  RH  048%=      5-min Rain = 0
KDC1 141531Z 34005KT 28/16 A3022 RMK A01 T02770157  RH  048%=      5-min Rain = 0
KDC1 141532Z 00005KT 28/15 A3022 RMK A01 T02780154  RH  047%=      5-min Rain = 0
KDC1 141533Z 35006KT 28/15 A3022 RMK A01 T02790148  RH  045%=      5-min Rain = 0
KDC1 141534Z 00006KT 28/15 A3022 RMK A01 T02790148  RH  045%=      5-min Rain = 0
KDC1 141535Z 36005KT 28/15 A3022 RMK A01 T02780147  RH  045%=      5-min Rain = 0
KDC1 141536Z 35004KT 28/15 A3022 RMK A01 T02780146  RH  044%=      5-min Rain = 0
KDC1 141537Z 34005KT 28/14 A3022 RMK A01 T02780144  RH  044%=      5-min Rain = 0
KDC1 141538Z 35004KT 28/14 A3022 RMK A01 T02770143  RH  044%=      5-min Rain = 0
KDC1 141539Z 00004KT 28/15 A3022 RMK A01 T02770146  RH  045%=      5-min Rain = 0
KDC1 141540Z 00004KT 28/15 A3022 RMK A01 T02760147  RH  045%=      5-min Rain = 0
KDC1 141541Z 35004KT 28/15 A3022 RMK A01 T02780148  RH  045%=      5-min Rain = 0
KDC1 141542Z 35003KT 28/15 A3022 RMK A01 T02780148  RH  045%=      5-min Rain = 0
KDC1 141543Z 36002KT 28/15 A3022 RMK A01 T02790150  RH  045%=      5-min Rain = 0
KDC1 141544Z 34003KT 28/15 A3022 RMK A01 T02800153  RH  046%=      5-min Rain = 0
KDC1 141545Z 33002KT 28/15 A3022 RMK A01 T02820152  RH  045%=      5-min Rain = 0
KDC1 141546Z 34002KT 28/15 A3022 RMK A01 T02830151  RH  044%=      5-min Rain = 0
KDC1 141547Z 31002KT 29/16 A3022 RMK A01 T02850157  RH  046%=      5-min Rain = 0
KDC1 141548Z 33002KT 29/15 A3022 RMK A01 T02870153  RH  044%=      5-min Rain = 0
KDC1 141549Z 00002KT 29/15 A3022 RMK A01 T02890151  RH  043%=      5-min Rain = 0
KDC1 141550Z 01003KT 29/15 A3022 RMK A01 T02900152  RH  043%=      5-min Rain = 0
KDC1 141551Z 34003KT 29/15 A3022 RMK A01 T02900151  RH  043%=      5-min Rain = 0
KDC1 141552Z 35003KT 29/15 A3022 RMK A01 T02910150  RH  042%=      5-min Rain = 0
KDC1 141553Z 33003KT 29/15 A3022 RMK A01 T02920153  RH  043%=      5-min Rain = 0
KDC1 141554Z 00003KT 29/16 A3022 RMK A01 T02920158  RH  044%=      5-min Rain = 0
KDC1 141555Z 36006KT 29/16 A3022 RMK A01 T02920159  RH  045%=      5-min Rain = 0
KDC1 141556Z 01006KT 29/16 A3022 RMK A01 T02920163  RH  046%=      5-min Rain = 0
KDC1 141557Z 02007KT 29/16 A3022 RMK A01 T02930162  RH  045%=      5-min Rain = 0
KDC1 141558Z 03008KT 29/16 A3022 RMK A01 T02940160  RH  044%=      5-min Rain = 0
KDC1 141559Z 03007KT 29/16 A3022 RMK A01 T02940158  RH  044%=      5-min Rain = 0
KDC1 141600Z 02005KT 30/16 A3022 RMK A01 T02950160  RH  044%=      5-min Rain = 0
KDC1 141601Z 01008KT 30/16 A3022 RMK A01 T02960161  RH  044%=      5-min Rain = 0
KDC1 141602Z 01007KT 30/16 A3022 RMK A01 T02960162  RH  044%=      5-min Rain = 0
KDC1 141603Z 00008KT 30/17 A3022 RMK A01 T02970167  RH  046%=      5-min Rain = 0
KDC1 141604Z 02011KT 30/17 A3022 RMK A01 T02980168  RH  045%=      5-min Rain = 0
KDC1 141605Z 02010KT 30/16 A3022 RMK A01 T02990163  RH  044%=      5-min Rain = 0
KDC1 141606Z 01010KT 30/17 A3022 RMK A01 T02990169  RH  046%=      5-min Rain = 0
KDC1 141607Z 01012KT 30/17 A3022 RMK A01 T02990171  RH  046%=      5-min Rain = 0
KDC1 141608Z 02013KT 30/17 A3022 RMK A01 T03000170  RH  046%=      5-min Rain = 0
KDC1 141609Z 03011KT 30/17 A3022 RMK A01 T02990171  RH  046%=      5-min Rain = 0
KDC1 141610Z 03010G15KT 30/17 A3022 RMK A01 T02990169  RH  046%=      5-min Rain = 0
KDC1 141611Z 03010KT 30/17 A3022 RMK A01 T03000173  RH  047%=      5-min Rain = 0
KDC1 141612Z 02013KT 30/17 A3022 RMK A01 T03010172  RH  046%=      5-min Rain = 0
KDC1 141613Z 02011KT 30/18 A3022 RMK A01 T03010176  RH  047%=      5-min Rain = 0
KDC1 141614Z 03015KT 30/18 A3023 RMK A01 T03010176  RH  047%=      5-min Rain = 0
KDC1 141615Z 03013KT 30/17 A3023 RMK A01 T03000174  RH  047%=      5-min Rain = 0
KDC1 141616Z 02013KT 30/18 A3023 RMK A01 T02990177  RH  048%=      5-min Rain = 0
KDC1 141617Z 02013KT 30/18 A3023 RMK A01 T03000177  RH  048%=      5-min Rain = 0
KDC1 141618Z 03013KT 30/18 A3023 RMK A01 T03000178  RH  048%=      5-min Rain = 0
KDC1 141619Z 02014KT 30/18 A3023 RMK A01 T03010180  RH  048%=      5-min Rain = 0
KDC1 141620Z 03015KT 30/18 A3023 RMK A01 T03020180  RH  048%=      5-min Rain = 0
KDC1 141621Z 03015G22KT 30/18 A3023 RMK A01 T03020180  RH  048%=      5-min Rain = 0
KDC1 141622Z 04016KT 30/18 A3023 RMK A01 T03020181  RH  048%=      5-min Rain = 0
KDC1 141623Z 04013G18KT 30/18 A3023 RMK A01 T03020180  RH  048%=      5-min Rain = 0
KDC1 141624Z 04016G21KT 30/18 A3023 RMK A01 T03020179  RH  048%=      5-min Rain = 0
KDC1 141625Z 05016KT 30/18 A3023 RMK A01 T03020178  RH  047%=      5-min Rain = 0
KDC1 141626Z 03015G21KT 30/18 A3023 RMK A01 T03010180  RH  048%=      5-min Rain = 0
KDC1 141627Z 04014KT 30/18 A3023 RMK A01 T03000181  RH  049%=      5-min Rain = 0
KDC1 141628Z 04017KT 30/18 A3023 RMK A01 T03000180  RH  049%=      5-min Rain = 0
KDC1 141629Z 04017KT 30/18 A3023 RMK A01 T02970178  RH  049%=      5-min Rain = 0
KDC1 141630Z 04016KT 30/18 A3023 RMK A01 T02960180  RH  050%=      5-min Rain = 0
KDC1 141631Z 03017KT 30/18 A3023 RMK A01 T02970179  RH  049%=      5-min Rain = 0
KDC1 141632Z 04016G24KT 30/18 A3023 RMK A01 T02960179  RH  049%=      5-min Rain = 0
KDC1 141633Z 04019KT 30/18 A3023 RMK A01 T02950178  RH  049%=      5-min Rain = 0
KDC1 141634Z 04016KT 29/18 A3023 RMK A01 T02930177  RH  050%=      5-min Rain = 0
KDC1 141635Z 03015KT 29/18 A3023 RMK A01 T02920178  RH  050%=      5-min Rain = 0
KDC1 141636Z 05016KT 29/18 A3023 RMK A01 T02910178  RH  050%=      5-min Rain = 0
KDC1 141637Z 05016KT 29/18 A3023 RMK A01 T02910178  RH  051%=      5-min Rain = 0
KDC1 141638Z 04018KT 29/18 A3023 RMK A01 T02910177  RH  050%=      5-min Rain = 0
KDC1 141639Z 05014G20KT 29/18 A3023 RMK A01 T02920180  RH  051%=      5-min Rain = 0
KDC1 141640Z 04013KT 29/18 A3023 RMK A01 T02940182  RH  051%=      5-min Rain = 0
KDC1 141641Z 05017KT 30/18 A3023 RMK A01 T02950181  RH  050%=      5-min Rain = 0
KDC1 141642Z 04016KT 30/18 A3023 RMK A01 T02960182  RH  050%=      5-min Rain = 0
KDC1 141643Z 05017KT 30/18 A3023 RMK A01 T02980181  RH  049%=      5-min Rain = 0
KDC1 141644Z 04015G20KT 30/18 A3023 RMK A01 T02980181  RH  049%=      5-min Rain = 0
KDC1 141645Z 04018KT 30/18 A3023 RMK A01 T02980180  RH  049%=      5-min Rain = 0
KDC1 141646Z 05016KT 30/18 A3023 RMK A01 T02980182  RH  050%=      5-min Rain = 0
KDC1 141647Z 05017KT 30/18 A3023 RMK A01 T02990182  RH  049%=      5-min Rain = 0
KDC1 141648Z 05014KT 30/18 A3023 RMK A01 T02990181  RH  049%=      5-min Rain = 0
KDC1 141649Z 04017KT 30/18 A3023 RMK A01 T02990182  RH  050%=      5-min Rain = 0
KDC1 141650Z 05016G21KT 30/18 A3023 RMK A01 T02990183  RH  050%=      5-min Rain = 0
KDC1 141651Z 05014KT 30/18 A3023 RMK A01 T02990182  RH  049%=      5-min Rain = 0
KDC1 141652Z 05016G22KT 30/18 A3023 RMK A01 T02990183  RH  050%=      5-min Rain = 0
KDC1 141653Z 05017G22KT 30/18 A3023 RMK A01 T02980181  RH  049%=      5-min Rain = 0
KDC1 141654Z 05018KT 30/18 A3023 RMK A01 T02950181  RH  050%=      5-min Rain = 0
KDC1 141655Z 04015KT 29/18 A3023 RMK A01 T02940180  RH  050%=      5-min Rain = 0
KDC1 141656Z 04017KT 29/18 A3023 RMK A01 T02940181  RH  051%=      5-min Rain = 0
KDC1 141657Z 04016KT 30/18 A3023 RMK A01 T02950180  RH  050%=      5-min Rain = 0
KDC1 141658Z 04015KT 30/18 A3023 RMK A01 T02950180  RH  050%=      5-min Rain = 0
KDC1 141659Z 04014G19KT 30/18 A3023 RMK A01 T02960182  RH  050%=      5-min Rain = 0
KDC1 141700Z 04017KT 30/18 A3024 RMK A01 T02980182  RH  050%=      5-min Rain = 0
KDC1 141701Z 04016KT 30/18 A3024 RMK A01 T02980180  RH  049%=      5-min Rain = 0
KDC1 141702Z 05016KT 30/18 A3024 RMK A01 T03000180  RH  049%=      5-min Rain = 0
KDC1 141703Z 04013G19KT 30/18 A3024 RMK A01 T03000181  RH  049%=      5-min Rain = 0
KDC1 141704Z 05013G18KT 30/18 A3024 RMK A01 T03020183  RH  049%=      5-min Rain = 0
KDC1 141705Z 06016KT 30/18 A3024 RMK A01 T03040182  RH  048%=      5-min Rain = 0
KDC1 141706Z 06014KT 30/18 A3024 RMK A01 T03040179  RH  047%=      5-min Rain = 0
KDC1 141707Z 06015KT 30/18 A3024 RMK A01 T03040182  RH  048%=      5-min Rain = 0
KDC1 141708Z 06016G21KT 30/19 A3024 RMK A01 T03030185  RH  049%=      5-min Rain = 0
KDC1 141709Z 07013KT 30/18 A3024 RMK A01 T03030184  RH  049%=      5-min Rain = 0
KDC1 141710Z 07014KT 30/18 A3024 RMK A01 T03040182  RH  048%=      5-min Rain = 0
KDC1 141711Z 05017KT 30/19 A3024 RMK A01 T03040185  RH  049%=      5-min Rain = 0
KDC1 141712Z 05016KT 30/18 A3024 RMK A01 T03030184  RH  049%=      5-min Rain = 0
KDC1 141713Z 05014KT 30/18 A3024 RMK A01 T03010183  RH  049%=      5-min Rain = 0
KDC1 141714Z 05013KT 30/18 A3024 RMK A01 T03020183  RH  049%=      5-min Rain = 0
KDC1 141715Z 04013KT 30/19 A3024 RMK A01 T03030185  RH  049%=      5-min Rain = 0
KDC1 141716Z 05016KT 30/19 A3024 RMK A01 T03040185  RH  049%=      5-min Rain = 0
KDC1 141717Z 05015G20KT 30/19 A3024 RMK A01 T03030185  RH  049%=      5-min Rain = 0
KDC1 141718Z 05016KT 30/19 A3024 RMK A01 T03030185  RH  049%=      5-min Rain = 0
KDC1 141719Z 05013G18KT 30/19 A3024 RMK A01 T03030185  RH  049%=      5-min Rain = 0
KDC1 141720Z 05017KT 30/19 A3024 RMK A01 T03020185  RH  050%=      5-min Rain = 0
KDC1 141721Z 04017G22KT 30/19 A3024 RMK A01 T03010186  RH  050%=      5-min Rain = 0
KDC1 141722Z 04017KT 30/19 A3024 RMK A01 T03000185  RH  050%=      5-min Rain = 0
KDC1 141723Z 05015KT 30/19 A3024 RMK A01 T02990185  RH  050%=      5-min Rain = 0
KDC1 141724Z 05014KT 30/19 A3024 RMK A01 T02980188  RH  051%=      5-min Rain = 0
KDC1 141725Z 05016KT 30/19 A3024 RMK A01 T02990187  RH  051%=      5-min Rain = 0
KDC1 141726Z 05016KT 30/19 A3024 RMK A01 T02990188  RH  051%=      5-min Rain = 0
KDC1 141727Z 05017KT 30/19 A3024 RMK A01 T02990188  RH  051%=      5-min Rain = 0
KDC1 141728Z 05013KT 30/19 A3024 RMK A01 T02970189  RH  052%=      5-min Rain = 0
KDC1 141729Z 05015KT 30/19 A3024 RMK A01 T02990190  RH  052%=      5-min Rain = 0
KDC1 141730Z 05015KT 30/19 A3024 RMK A01 T02990189  RH  052%=      5-min Rain = 0
KDC1 141731Z 05014KT 30/19 A3024 RMK A01 T02980190  RH  052%=      5-min Rain = 0
KDC1 141732Z 05017KT 30/19 A3024 RMK A01 T02980191  RH  053%=      5-min Rain = 0
KDC1 141733Z 04018KT 30/19 A3024 RMK A01 T02980189  RH  052%=      5-min Rain = 0
KDC1 141734Z 05019KT 30/19 A3024 RMK A01 T02970189  RH  052%=      5-min Rain = 0
KDC1 141735Z 05016KT 30/19 A3024 RMK A01 T02960188  RH  052%=      5-min Rain = 0
KDC1 141736Z 05017KT 30/19 A3024 RMK A01 T02960189  RH  053%=      5-min Rain = 0
KDC1 141737Z 05013G18KT 30/19 A3024 RMK A01 T02960190  RH  053%=      5-min Rain = 0
KDC1 141738Z 05016KT 30/19 A3024 RMK A01 T02980189  RH  052%=      5-min Rain = 0
KDC1 141739Z 06014KT 30/19 A3024 RMK A01 T02990189  RH  052%=      5-min Rain = 0
KDC1 141740Z 06013KT 30/19 A3024 RMK A01 T02990189  RH  052%=      5-min Rain = 0
KDC1 141741Z 06014KT 30/19 A3024 RMK A01 T03000192  RH  052%=      5-min Rain = 0
KDC1 141742Z 06013KT 30/19 A3024 RMK A01 T03010191  RH  052%=      5-min Rain = 0
KDC1 141743Z 05016KT 30/19 A3024 RMK A01 T03030189  RH  051%=      5-min Rain = 0
KDC1 141744Z 06014KT 30/19 A3024 RMK A01 T03040189  RH  050%=      5-min Rain = 0
KDC1 141745Z 06016KT 30/19 A3024 RMK A01 T03040188  RH  050%=      5-min Rain = 0
KDC1 141746Z 06015KT 30/19 A3024 RMK A01 T03020189  RH  051%=      5-min Rain = 0
KDC1 141747Z 06013KT 30/19 A3024 RMK A01 T03020188  RH  050%=      5-min Rain = 0
KDC1 141748Z 05014KT 30/19 A3024 RMK A01 T03020190  RH  051%=      5-min Rain = 0
KDC1 141749Z 06013KT 30/19 A3024 RMK A01 T03010187  RH  050%=      5-min Rain = 0
KDC1 141750Z 05012KT 30/19 A3024 RMK A01 T03010186  RH  050%=      5-min Rain = 0
KDC1 141751Z 05014KT 30/19 A3024 RMK A01 T03030185  RH  049%=      5-min Rain = 0
KDC1 141752Z 06013KT 30/19 A3024 RMK A01 T03030185  RH  049%=      5-min Rain = 0
KDC1 141753Z 06013KT 30/19 A3023 RMK A01 T03040186  RH  050%=      5-min Rain = 0
KDC1 141754Z 05013KT 31/19 A3023 RMK A01 T03050186  RH  049%=      5-min Rain = 0
KDC1 141755Z 06012KT 31/19 A3023 RMK A01 T03050186  RH  049%=      5-min Rain = 0
KDC1 141756Z 07013KT 31/19 A3023 RMK A01 T03050187  RH  049%=      5-min Rain = 0
KDC1 141757Z 07010KT 31/18 A3023 RMK A01 T03080184  RH  048%=      5-min Rain = 0
KDC1 141758Z 06011KT 31/18 A3023 RMK A01 T03090182  RH  047%=      5-min Rain = 0
KDC1 141759Z 06010KT 31/19 A3023 RMK A01 T03080185  RH  048%=      5-min Rain = 0
KDC1 141800Z 06013KT 31/18 A3023 RMK A01 T03080184  RH  047%=      5-min Rain = 0
KDC1 141801Z 05012KT 31/18 A3023 RMK A01 T03070182  RH  047%=      5-min Rain = 0
KDC1 141802Z 06012KT 31/19 A3023 RMK A01 T03060186  RH  049%=      5-min Rain = 0
KDC1 141803Z 06012KT 31/19 A3023 RMK A01 T03090187  RH  048%=      5-min Rain = 0
KDC1 141804Z 07011KT 31/19 A3023 RMK A01 T03110187  RH  048%=      5-min Rain = 0
KDC1 141805Z 07012KT 31/18 A3023 RMK A01 T03130182  RH  046%=      5-min Rain = 0
KDC1 141806Z 07012KT 32/19 A3023 RMK A01 T03170185  RH  045%=      5-min Rain = 0
KDC1 141807Z 07011KT 32/18 A3023 RMK A01 T03150183  RH  045%=      5-min Rain = 0
KDC1 141808Z 06012KT 31/18 A3023 RMK A01 T03110184  RH  047%=      5-min Rain = 0
KDC1 141809Z 05013KT 31/18 A3023 RMK A01 T03110182  RH  046%=      5-min Rain = 0
KDC1 141810Z 06011KT 31/18 A3023 RMK A01 T03100180  RH  046%=      5-min Rain = 0
KDC1 141811Z 06010KT 31/18 A3023 RMK A01 T03090179  RH  046%=      5-min Rain = 0
KDC1 141812Z 04009KT 31/18 A3023 RMK A01 T03090179  RH  046%=      5-min Rain = 0
KDC1 141813Z 05008KT 31/18 A3022 RMK A01 T03090178  RH  045%=      5-min Rain = 0
KDC1 141814Z 05007KT 31/18 A3022 RMK A01 T03090177  RH  045%=      5-min Rain = 0
KDC1 141815Z 05008KT 31/18 A3022 RMK A01 T03080177  RH  045%=      5-min Rain = 0
KDC1 141816Z 05011KT 31/18 A3023 RMK A01 T03060180  RH  047%=      5-min Rain = 0
KDC1 141817Z 05013KT 31/18 A3023 RMK A01 T03080182  RH  047%=      5-min Rain = 0
KDC1 141818Z 05012KT 31/19 A3023 RMK A01 T03110185  RH  047%=      5-min Rain = 0
KDC1 141819Z 04012G17KT 31/19 A3022 RMK A01 T03130185  RH  047%=      5-min Rain = 0
KDC1 141820Z 05014KT 31/19 A3023 RMK A01 T03140185  RH  046%=      5-min Rain = 0
KDC1 141821Z 06013KT 31/18 A3022 RMK A01 T03120182  RH  046%=      5-min Rain = 0
KDC1 141822Z 05011KT 31/18 A3022 RMK A01 T03100182  RH  046%=      5-min Rain = 0
KDC1 141823Z 04012KT 31/18 A3022 RMK A01 T03090181  RH  046%=      5-min Rain = 0
KDC1 141824Z 04011KT 31/18 A3022 RMK A01 T03120179  RH  045%=      5-min Rain = 0
KDC1 141825Z 05008KT 31/18 A3022 RMK A01 T03130178  RH  045%=      5-min Rain = 0
KDC1 141826Z 05009KT 31/18 A3022 RMK A01 T03120180  RH  045%=      5-min Rain = 0
KDC1 141827Z 04011KT 32/18 A3022 RMK A01 T03150181  RH  045%=      5-min Rain = 0
KDC1 141828Z 05008KT 31/18 A3022 RMK A01 T03130179  RH  045%=      5-min Rain = 0
KDC1 141829Z 07013KT 31/18 A3022 RMK A01 T03130180  RH  045%=      5-min Rain = 0
KDC1 141830Z 07010KT 31/18 A3022 RMK A01 T03130178  RH  044%=      5-min Rain = 0
KDC1 141831Z 04011KT 32/18 A3022 RMK A01 T03170183  RH  045%=      5-min Rain = 0
KDC1 141832Z 04012KT 32/18 A3022 RMK A01 T03200182  RH  044%=      5-min Rain = 0
KDC1 141833Z 04011KT 32/18 A3022 RMK A01 T03200179  RH  043%=      5-min Rain = 0
KDC1 141834Z 06011KT 32/18 A3022 RMK A01 T03180179  RH  043%=      5-min Rain = 0
KDC1 141835Z 06011KT 32/18 A3022 RMK A01 T03170176  RH  043%=      5-min Rain = 0
KDC1 141836Z 05009KT 32/18 A3022 RMK A01 T03150178  RH  044%=      5-min Rain = 0
KDC1 141837Z 04010KT 32/18 A3022 RMK A01 T03160175  RH  043%=      5-min Rain = 0
KDC1 141838Z 03009KT 32/18 A3022 RMK A01 T03150177  RH  044%=      5-min Rain = 0
KDC1 141839Z 06009KT 31/18 A3022 RMK A01 T03140176  RH  044%=      5-min Rain = 0
KDC1 141840Z 06010KT 31/18 A3022 RMK A01 T03130177  RH  044%=      5-min Rain = 0
KDC1 141841Z 06008KT 32/18 A3022 RMK A01 T03150176  RH  043%=      5-min Rain = 0
KDC1 141842Z 04009KT 32/18 A3022 RMK A01 T03180177  RH  043%=      5-min Rain = 0
KDC1 141843Z 04011KT 32/18 A3022 RMK A01 T03190178  RH  043%=      5-min Rain = 0
KDC1 141844Z 03010KT 32/17 A3022 RMK A01 T03170174  RH  043%=      5-min Rain = 0
KDC1 141845Z 05008KT 31/17 A3022 RMK A01 T03140174  RH  043%=      5-min Rain = 0
KDC1 141846Z 05008KT 31/17 A3022 RMK A01 T03130173  RH  043%=      5-min Rain = 0
KDC1 141847Z 07009KT 31/17 A3022 RMK A01 T03130174  RH  043%=      5-min Rain = 0
KDC1 141848Z 06010KT 31/18 A3022 RMK A01 T03140175  RH  043%=      5-min Rain = 0
KDC1 141849Z 05006KT 32/17 A3022 RMK A01 T03160173  RH  042%=      5-min Rain = 0
KDC1 141850Z 04004KT 31/17 A3022 RMK A01 T03140172  RH  043%=      5-min Rain = 0
KDC1 141851Z 03004KT 31/17 A3021 RMK A01 T03130173  RH  043%=      5-min Rain = 0
KDC1 141852Z 04005KT 32/17 A3021 RMK A01 T03150174  RH  043%=      5-min Rain = 0
KDC1 141853Z 05005KT 32/17 A3021 RMK A01 T03160173  RH  042%=      5-min Rain = 0
KDC1 141854Z 04006KT 32/17 A3021 RMK A01 T03160173  RH  043%=      5-min Rain = 0
KDC1 141855Z 04007KT 32/17 A3021 RMK A01 T03150174  RH  043%=      5-min Rain = 0
KDC1 141856Z 04007KT 32/17 A3021 RMK A01 T03180172  RH  042%=      5-min Rain = 0
KDC1 141857Z 03007KT 32/17 A3021 RMK A01 T03180172  RH  042%=      5-min Rain = 0
KDC1 141858Z 04006KT 32/17 A3021 RMK A01 T03180173  RH  042%=      5-min Rain = 0
KDC1 141859Z 05004KT 32/17 A3021 RMK A01 T03180173  RH  042%=      5-min Rain = 0
KDC1 141900Z 05006KT 32/17 A3021 RMK A01 T03190172  RH  042%=      5-min Rain = 0
KDC1 141901Z 04008KT 32/17 A3021 RMK A01 T03200173  RH  041%=      5-min Rain = 0
KDC1 141902Z 03010KT 32/18 A3021 RMK A01 T03180175  RH  042%=      5-min Rain = 0
KDC1 141903Z 03011KT 32/18 A3021 RMK A01 T03160176  RH  043%=      5-min Rain = 0
KDC1 141904Z 03009KT 32/18 A3021 RMK A01 T03160176  RH  043%=      5-min Rain = 0
KDC1 141905Z 03011KT 32/18 A3021 RMK A01 T03160178  RH  044%=      5-min Rain = 0
KDC1 141906Z 05012KT 32/18 A3021 RMK A01 T03180177  RH  043%=      5-min Rain = 0
KDC1 141907Z 05012KT 32/18 A3021 RMK A01 T03200175  RH  042%=      5-min Rain = 0
KDC1 141908Z 04011KT 32/17 A3021 RMK A01 T03210174  RH  041%=      5-min Rain = 0
KDC1 141909Z 05009KT 32/18 A3021 RMK A01 T03190175  RH  042%=      5-min Rain = 0
KDC1 141910Z 02009KT 32/18 A3021 RMK A01 T03200175  RH  042%=      5-min Rain = 0
KDC1 141911Z 02009KT 32/18 A3021 RMK A01 T03210175  RH  042%=      5-min Rain = 0
KDC1 141912Z 03007KT 32/18 A3021 RMK A01 T03210176  RH  042%=      5-min Rain = 0
KDC1 141913Z 03007KT 32/18 A3021 RMK A01 T03240177  RH  042%=      5-min Rain = 0
KDC1 141914Z 02007KT 32/18 A302 RMK A01 T03240178  RH  042%=      5-min Rain = 0
KDC1 141915Z 05008KT 33/18 A302 RMK A01 T03250178  RH  042%=      5-min Rain = 0
KDC1 141916Z 04007KT 33/17 A302 RMK A01 T03270173  RH  040%=      5-min Rain = 0
KDC1 141917Z 03005KT 32/17 A302 RMK A01 T03240172  RH  040%=      5-min Rain = 0
KDC1 141918Z 04003KT 32/17 A302 RMK A01 T03200172  RH  041%=      5-min Rain = 0
KDC1 141919Z 02006KT 32/17 A302 RMK A01 T03190172  RH  042%=      5-min Rain = 0
KDC1 141920Z 05004KT 32/17 A302 RMK A01 T03190171  RH  041%=      5-min Rain = 0
KDC1 141921Z 02003KT 32/17 A302 RMK A01 T03180171  RH  042%=      5-min Rain = 0
KDC1 141922Z 01004KT 32/18 A302 RMK A01 T03200175  RH  042%=      5-min Rain = 0
KDC1 141923Z 02008KT 33/18 A302 RMK A01 T03250175  RH  041%=      5-min Rain = 0
KDC1 141924Z 05008KT 33/17 A302 RMK A01 T03250174  RH  041%=      5-min Rain = 0
KDC1 141925Z 04006KT 33/17 A302 RMK A01 T03260172  RH  040%=      5-min Rain = 0
KDC1 141926Z 03007KT 32/17 A302 RMK A01 T03230171  RH  040%=      5-min Rain = 0
KDC1 141927Z 03008KT 32/17 A302 RMK A01 T03230173  RH  041%=      5-min Rain = 0
KDC1 141928Z 03007KT 33/17 A302 RMK A01 T03250170  RH  040%=      5-min Rain = 0
KDC1 141929Z 03003KT 32/17 A302 RMK A01 T03230172  RH  040%=      5-min Rain = 0
KDC1 141930Z 06007KT 32/17 A302 RMK A01 T03240173  RH  041%=      5-min Rain = 0
KDC1 141931Z 07008KT 33/17 A302 RMK A01 T03250173  RH  040%=      5-min Rain = 0
KDC1 141932Z 07008KT 33/17 A302 RMK A01 T03270172  RH  040%=      5-min Rain = 0
KDC1 141933Z 09008KT 33/17 A302 RMK A01 T03280170  RH  039%=      5-min Rain = 0
KDC1 141934Z 09006KT 33/17 A302 RMK A01 T03250170  RH  039%=      5-min Rain = 0
KDC1 141935Z 11004KT 32/17 A302 RMK A01 T03230169  RH  040%=      5-min Rain = 0
KDC1 141936Z 09002KT 32/17 A302 RMK A01 T03230170  RH  040%=      5-min Rain = 0
KDC1 141937Z 06001KT 32/17 A302 RMK A01 T03240168  RH  039%=      5-min Rain = 0
KDC1 141938Z 21001KT 32/17 A302 RMK A01 T03230168  RH  039%=      5-min Rain = 0
KDC1 141939Z 19001KT 32/17 A302 RMK A01 T03230167  RH  039%=      5-min Rain = 0
KDC1 141940Z 16000KT 32/17 A3019 RMK A01 T03230168  RH  040%=      5-min Rain = 0
KDC1 141941Z 26001KT 33/17 A3019 RMK A01 T03250170  RH  039%=      5-min Rain = 0
KDC1 141942Z 20001KT 33/17 A3019 RMK A01 T03260170  RH  039%=      5-min Rain = 0
KDC1 141943Z 07001KT 33/17 A3019 RMK A01 T03270172  RH  040%=      5-min Rain = 0
KDC1 141944Z 05004KT 33/17 A3019 RMK A01 T03310172  RH  039%=      5-min Rain = 0
KDC1 141945Z 03004KT 33/17 A3019 RMK A01 T03310171  RH  038%=      5-min Rain = 0
KDC1 141946Z 00003KT 33/17 A3019 RMK A01 T03280170  RH  039%=      5-min Rain = 0
KDC1 141947Z 35001KT 33/17 A3019 RMK A01 T03260170  RH  039%=      5-min Rain = 0
KDC1 141948Z 33001KT 33/17 A3019 RMK A01 T03250171  RH  040%=      5-min Rain = 0
KDC1 141949Z 32000KT 33/17 A3019 RMK A01 T03250171  RH  040%=      5-min Rain = 0
KDC1 141950Z 08000KT 33/17 A3019 RMK A01 T03270172  RH  040%=      5-min Rain = 0
KDC1 141951Z 16001KT 33/17 A3019 RMK A01 T03290172  RH  039%=      5-min Rain = 0
KDC1 141952Z 26003KT 33/17 A3019 RMK A01 T03300174  RH  039%=      5-min Rain = 0
KDC1 141953Z 31003KT 33/17 A3019 RMK A01 T03320170  RH  038%=      5-min Rain = 0
KDC1 141954Z 30001KT 33/17 A3018 RMK A01 T03310172  RH  039%=      5-min Rain = 0
KDC1 141955Z 18002KT 33/18 A3018 RMK A01 T03320175  RH  039%=      5-min Rain = 0
KDC1 141956Z 17002KT 33/17 A3018 RMK A01 T03330174  RH  039%=      5-min Rain = 0
KDC1 141957Z 17003KT 33/17 A3018 RMK A01 T03330172  RH  038%=      5-min Rain = 0
KDC1 141958Z 21002KT 33/17 A3018 RMK A01 T03320174  RH  039%=      5-min Rain = 0
KDC1 141959Z 21004KT 33/17 A3018 RMK A01 T03330174  RH  039%=      5-min Rain = 0
KDC1 142000Z 18004KT 33/18 A3018 RMK A01 T03330176  RH  039%=      5-min Rain = 0
KDC1 142001Z 18003KT 33/17 A3018 RMK A01 T03320172  RH  038%=      5-min Rain = 0
KDC1 142002Z 18005KT 33/18 A3018 RMK A01 T03310176  RH  040%=      5-min Rain = 0
KDC1 142003Z 19004KT 33/18 A3018 RMK A01 T03300175  RH  040%=      5-min Rain = 0
KDC1 142004Z 23007KT 33/17 A3018 RMK A01 T03300174  RH  039%=      5-min Rain = 0
KDC1 142005Z 22004KT 33/17 A3018 RMK A01 T03300169  RH  038%=      5-min Rain = 0
KDC1 142006Z 19006KT 33/17 A3017 RMK A01 T03300174  RH  039%=      5-min Rain = 0
KDC1 142007Z 19007KT 33/17 A3017 RMK A01 T03290173  RH  039%=      5-min Rain = 0
KDC1 142008Z 19007KT 33/17 A3017 RMK A01 T03290174  RH  040%=      5-min Rain = 0
KDC1 142009Z 18006KT 33/17 A3017 RMK A01 T03280173  RH  040%=      5-min Rain = 0
KDC1 142010Z 18007KT 33/18 A3017 RMK A01 T03280177  RH  040%=      5-min Rain = 0
KDC1 142011Z 18006KT 33/17 A3017 RMK A01 T03280173  RH  040%=      5-min Rain = 0
KDC1 142012Z 14005KT 33/17 A3017 RMK A01 T03280174  RH  040%=      5-min Rain = 0
KDC1 142013Z 17003KT 33/17 A3017 RMK A01 T03290172  RH  039%=      5-min Rain = 0
KDC1 142014Z 16002KT 33/17 A3017 RMK A01 T03290169  RH  038%=      5-min Rain = 0
KDC1 142015Z 17003KT 33/17 A3017 RMK A01 T03290169  RH  038%=      5-min Rain = 0
KDC1 142016Z 12003KT 33/17 A3017 RMK A01 T03300169  RH  038%=      5-min Rain = 0
KDC1 142017Z 13005KT 33/17 A3017 RMK A01 T03300169  RH  038%=      5-min Rain = 0
KDC1 142018Z 13003KT 33/17 A3017 RMK A01 T03290168  RH  038%=      5-min Rain = 0
KDC1 142019Z 31002KT 33/17 A3017 RMK A01 T03300168  RH  038%=      5-min Rain = 0
KDC1 142020Z 23005KT 33/17 A3017 RMK A01 T03330172  RH  038%=      5-min Rain = 0
KDC1 142021Z 21005KT 34/17 A3016 RMK A01 T03350170  RH  037%=      5-min Rain = 0
KDC1 142022Z 21007KT 34/17 A3016 RMK A01 T03350170  RH  037%=      5-min Rain = 0
KDC1 142023Z 21006KT 33/17 A3016 RMK A01 T03330170  RH  038%=      5-min Rain = 0
KDC1 142024Z 21003KT 33/17 A3016 RMK A01 T03330170  RH  038%=      5-min Rain = 0
KDC1 142025Z 19005KT 34/17 A3016 RMK A01 T03350171  RH  038%=      5-min Rain = 0
KDC1 142026Z 21003KT 34/17 A3016 RMK A01 T03350171  RH  037%=      5-min Rain = 0
KDC1 142027Z 22005KT 34/17 A3016 RMK A01 T03360171  RH  038%=      5-min Rain = 0
KDC1 142028Z 21004KT 34/17 A3016 RMK A01 T03360170  RH  037%=      5-min Rain = 0
KDC1 142029Z 18003KT 34/17 A3016 RMK A01 T03350168  RH  037%=      5-min Rain = 0
KDC1 142030Z 24003KT 34/17 A3016 RMK A01 T03350171  RH  038%=      5-min Rain = 0
KDC1 142031Z 27003KT 34/17 A3016 RMK A01 T03370170  RH  037%=      5-min Rain = 0
KDC1 142032Z 22004KT 34/17 A3016 RMK A01 T03420171  RH  036%=      5-min Rain = 0
KDC1 142033Z 19004KT 34/17 A3016 RMK A01 T03420173  RH  037%=      5-min Rain = 0
KDC1 142034Z 21005KT 34/17 A3016 RMK A01 T03410174  RH  037%=      5-min Rain = 0
KDC1 142035Z 27004KT 34/17 A3016 RMK A01 T03420172  RH  036%=      5-min Rain = 0
KDC1 142036Z 29005KT 34/17 A3016 RMK A01 T03430170  RH  036%=      5-min Rain = 0
KDC1 142037Z 28004KT 34/17 A3016 RMK A01 T03390168  RH  036%=      5-min Rain = 0
KDC1 142038Z 28004KT 34/17 A3016 RMK A01 T03360168  RH  037%=      5-min Rain = 0
KDC1 142039Z 29004KT 33/17 A3015 RMK A01 T03340167  RH  037%=      5-min Rain = 0
KDC1 142040Z 28005KT 33/17 A3015 RMK A01 T03320167  RH  037%=      5-min Rain = 0
KDC1 142041Z 28004KT 33/17 A3015 RMK A01 T03320167  RH  037%=      5-min Rain = 0
KDC1 142042Z 32003KT 33/17 A3015 RMK A01 T03320167  RH  037%=      5-min Rain = 0
KDC1 142043Z 35003KT 33/17 A3015 RMK A01 T03320167  RH  037%=      5-min Rain = 0
KDC1 142044Z 36001KT 33/17 A3015 RMK A01 T03320167  RH  037%=      5-min Rain = 0
KDC1 142045Z 17001KT 33/17 A3015 RMK A01 T03320169  RH  038%=      5-min Rain = 0
KDC1 142046Z 20002KT 34/17 A3015 RMK A01 T03350170  RH  038%=      5-min Rain = 0
KDC1 142047Z 19002KT 34/17 A3015 RMK A01 T03370172  RH  038%=      5-min Rain = 0
KDC1 142048Z 21003KT 34/17 A3015 RMK A01 T03380173  RH  037%=      5-min Rain = 0
KDC1 142049Z 17003KT 34/17 A3015 RMK A01 T03380173  RH  038%=      5-min Rain = 0
KDC1 142050Z 21001KT 34/18 A3015 RMK A01 T03380179  RH  039%=      5-min Rain = 0
KDC1 142051Z 18003KT 34/18 A3015 RMK A01 T03400180  RH  039%=      5-min Rain = 0
KDC1 142052Z 20004KT 34/17 A3015 RMK A01 T03410173  RH  037%=      5-min Rain = 0
KDC1 142053Z 21003KT 34/17 A3014 RMK A01 T03390171  RH  037%=      5-min Rain = 0
KDC1 142054Z 24003KT 34/17 A3014 RMK A01 T03400168  RH  036%=      5-min Rain = 0
KDC1 142055Z 26004KT 34/17 A3014 RMK A01 T03380167  RH  036%=      5-min Rain = 0
KDC1 142056Z 26003KT 34/17 A3014 RMK A01 T03360167  RH  036%=      5-min Rain = 0
KDC1 142057Z 27005KT 34/17 A3014 RMK A01 T03360167  RH  037%=      5-min Rain = 0
KDC1 142058Z 26005KT 34/17 A3014 RMK A01 T03370168  RH  036%=      5-min Rain = 0
KDC1 142059Z 26003KT 34/17 A3014 RMK A01 T03380168  RH  036%=      5-min Rain = 0
KDC1 142100Z 26002KT 34/17 A3014 RMK A01 T03400169  RH  036%=      5-min Rain = 0
KDC1 142101Z 18002KT 34/17 A3014 RMK A01 T03410168  RH  036%=      5-min Rain = 0
KDC1 142102Z 15004KT 34/18 A3014 RMK A01 T03410177  RH  038%=      5-min Rain = 0
KDC1 142103Z 16004KT 34/18 A3014 RMK A01 T03390177  RH  038%=      5-min Rain = 0
KDC1 142104Z 15003KT 34/17 A3014 RMK A01 T03370173  RH  038%=      5-min Rain = 0
KDC1 142105Z 14004KT 34/17 A3014 RMK A01 T03360174  RH  038%=      5-min Rain = 0
KDC1 142106Z 13006KT 34/18 A3014 RMK A01 T03350176  RH  039%=      5-min Rain = 0
KDC1 142107Z 13006KT 33/18 A3014 RMK A01 T03340180  RH  040%=      5-min Rain = 0
KDC1 142108Z 13006KT 33/17 A3014 RMK A01 T03330170  RH  038%=      5-min Rain = 0
KDC1 142109Z 16005KT 33/17 A3013 RMK A01 T03320172  RH  039%=      5-min Rain = 0
KDC1 142110Z 16005KT 33/18 A3013 RMK A01 T03320181  RH  041%=      5-min Rain = 0
KDC1 142111Z 14004KT 34/18 A3013 RMK A01 T03350175  RH  039%=      5-min Rain = 0
KDC1 142112Z 12002KT 34/17 A3013 RMK A01 T03360168  RH  037%=      5-min Rain = 0
KDC1 142113Z 15002KT 34/17 A3013 RMK A01 T03350169  RH  037%=      5-min Rain = 0
KDC1 142114Z 17004KT 34/17 A3013 RMK A01 T03350170  RH  037%=      5-min Rain = 0
KDC1 142115Z 15003KT 34/17 A3013 RMK A01 T03350170  RH  037%=      5-min Rain = 0
KDC1 142116Z 12003KT 34/17 A3013 RMK A01 T03350167  RH  037%=      5-min Rain = 0
KDC1 142117Z 11003KT 34/17 A3013 RMK A01 T03360168  RH  037%=      5-min Rain = 0
KDC1 142118Z 11002KT 34/17 A3013 RMK A01 T03360168  RH  037%=      5-min Rain = 0
KDC1 142119Z 12001KT 34/17 A3013 RMK A01 T03360172  RH  038%=      5-min Rain = 0
KDC1 142120Z 13001KT 34/18 A3013 RMK A01 T03360175  RH  038%=      5-min Rain = 0
KDC1 142121Z 15004KT 34/18 A3013 RMK A01 T03390179  RH  039%=      5-min Rain = 0
KDC1 142122Z 16004KT 34/18 A3013 RMK A01 T03400181  RH  039%=      5-min Rain = 0
KDC1 142123Z 16004KT 34/18 A3013 RMK A01 T03400181  RH  039%=      5-min Rain = 0
KDC1 142124Z 15007KT 34/18 A3013 RMK A01 T03400175  RH  038%=      5-min Rain = 0
KDC1 142125Z 14006KT 34/18 A3013 RMK A01 T03370175  RH  038%=      5-min Rain = 0
KDC1 142126Z 14006KT 34/18 A3013 RMK A01 T03370184  RH  040%=      5-min Rain = 0
KDC1 142127Z 14006KT 34/18 A3013 RMK A01 T03360183  RH  040%=      5-min Rain = 0
KDC1 142128Z 13005KT 34/18 A3013 RMK A01 T03350175  RH  039%=      5-min Rain = 0
KDC1 142129Z 14005KT 33/17 A3013 RMK A01 T03340171  RH  038%=      5-min Rain = 0
KDC1 142130Z 15005KT 33/19 A3012 RMK A01 T03340186  RH  042%=      5-min Rain = 0
KDC1 142131Z 14005KT 33/18 A3012 RMK A01 T03330176  RH  039%=      5-min Rain = 0
KDC1 142132Z 14004KT 33/18 A3012 RMK A01 T03320179  RH  040%=      5-min Rain = 0
KDC1 142133Z 11003KT 33/17 A3012 RMK A01 T03310174  RH  039%=      5-min Rain = 0
KDC1 142134Z 09004KT 33/17 A3012 RMK A01 T03340169  RH  037%=      5-min Rain = 0
KDC1 142135Z 09002KT 33/17 A3012 RMK A01 T03340170  RH  038%=      5-min Rain = 0
KDC1 142136Z 12004KT 33/17 A3012 RMK A01 T03340168  RH  037%=      5-min Rain = 0
KDC1 142137Z 11003KT 33/17 A3012 RMK A01 T03340167  RH  037%=      5-min Rain = 0
KDC1 142138Z 12003KT 34/17 A3012 RMK A01 T03360167  RH  037%=      5-min Rain = 0
KDC1 142139Z 12001KT 34/17 A3012 RMK A01 T03370165  RH  036%=      5-min Rain = 0
KDC1 142140Z 12002KT 34/17 A3012 RMK A01 T03360166  RH  036%=      5-min Rain = 0
KDC1 142141Z 13003KT 34/17 A3012 RMK A01 T03360166  RH  036%=      5-min Rain = 0
KDC1 142142Z 14002KT 34/17 A3012 RMK A01 T03370171  RH  037%=      5-min Rain = 0
KDC1 142143Z 16005KT 34/17 A3012 RMK A01 T03370172  RH  037%=      5-min Rain = 0
KDC1 142144Z 18004KT 34/17 A3012 RMK A01 T03380174  RH  038%=      5-min Rain = 0
KDC1 142145Z 16004KT 34/17 A3012 RMK A01 T03380168  RH  036%=      5-min Rain = 0
KDC1 142146Z 18005KT 34/17 A3012 RMK A01 T03380173  RH  037%=      5-min Rain = 0
KDC1 142147Z 16006KT 34/17 A3011 RMK A01 T03380173  RH  037%=      5-min Rain = 0
KDC1 142148Z 17005KT 34/17 A3011 RMK A01 T03360167  RH  036%=      5-min Rain = 0
KDC1 142149Z 17006KT 34/17 A3011 RMK A01 T03360167  RH  037%=      5-min Rain = 0
KDC1 142150Z 17006KT 34/17 A3011 RMK A01 T03360174  RH  038%=      5-min Rain = 0
KDC1 142151Z 17005KT 34/17 A3011 RMK A01 T03370173  RH  038%=      5-min Rain = 0
KDC1 142152Z 15005KT 34/17 A3011 RMK A01 T03380166  RH  036%=      5-min Rain = 0
KDC1 142153Z 15004KT 34/17 A3011 RMK A01 T03370168  RH  037%=      5-min Rain = 0
KDC1 142154Z 14004KT 34/17 A3011 RMK A01 T03360168  RH  037%=      5-min Rain = 0
KDC1 142155Z 15003KT 34/17 A3011 RMK A01 T03360166  RH  036%=      5-min Rain = 0
KDC1 142156Z 01000KT 34/16 A3011 RMK A01 T03380161  RH  035%=      5-min Rain = 0
KDC1 142157Z 14002KT 34/17 A3011 RMK A01 T03400171  RH  037%=      5-min Rain = 0
KDC1 142158Z 12003KT 34/17 A3011 RMK A01 T03410165  RH  035%=      5-min Rain = 0
KDC1 142159Z 15003KT 34/17 A3011 RMK A01 T03420165  RH  035%=      5-min Rain = 0
KDC1 142200Z 17003KT 34/17 A3011 RMK A01 T03420166  RH  035%=      5-min Rain = 0
KDC1 142201Z 17002KT 34/17 A3011 RMK A01 T03410167  RH  035%=      5-min Rain = 0
KDC1 142202Z 16004KT 34/17 A3011 RMK A01 T03420173  RH  037%=      5-min Rain = 0
KDC1 142203Z 15004KT 34/17 A3011 RMK A01 T03410167  RH  035%=      5-min Rain = 0
KDC1 142204Z 14005KT 34/19 A3011 RMK A01 T03410188  RH  040%=      5-min Rain = 0
KDC1 142205Z 15005KT 34/18 A3011 RMK A01 T03410178  RH  038%=      5-min Rain = 0
KDC1 142206Z 15005KT 34/18 A3011 RMK A01 T03420184  RH  039%=      5-min Rain = 0
KDC1 142207Z 15004KT 34/17 A3011 RMK A01 T03420169  RH  036%=      5-min Rain = 0
KDC1 142208Z 15004KT 34/17 A3011 RMK A01 T03410172  RH  037%=      5-min Rain = 0
KDC1 142209Z 13005KT 34/18 A3011 RMK A01 T03400176  RH  038%=      5-min Rain = 0
KDC1 142210Z 12004KT 34/16 A3011 RMK A01 T03400161  RH  034%=      5-min Rain = 0
KDC1 142211Z 11002KT 34/16 A3011 RMK A01 T03390156  RH  033%=      5-min Rain = 0
KDC1 142212Z 15002KT 34/16 A3011 RMK A01 T03390162  RH  035%=      5-min Rain = 0
KDC1 142213Z 16003KT 34/17 A3011 RMK A01 T03400171  RH  037%=      5-min Rain = 0
KDC1 142214Z 15003KT 34/16 A3011 RMK A01 T03400160  RH  034%=      5-min Rain = 0
KDC1 142215Z 16003KT 34/17 A3011 RMK A01 T03410167  RH  036%=      5-min Rain = 0
KDC1 142216Z 17004KT 34/16 A3011 RMK A01 T03420162  RH  034%=      5-min Rain = 0
KDC1 142217Z 13001KT 34/16 A3011 RMK A01 T03410160  RH  034%=      5-min Rain = 0
KDC1 142218Z 14001KT 34/16 A3011 RMK A01 T03410159  RH  034%=      5-min Rain = 0
KDC1 142219Z 13001KT 34/16 A3011 RMK A01 T03410161  RH  034%=      5-min Rain = 0
KDC1 142220Z 13003KT 34/16 A3011 RMK A01 T03410160  RH  034%=      5-min Rain = 0
KDC1 142221Z 14004KT 34/16 A3011 RMK A01 T03400161  RH  034%=      5-min Rain = 0
KDC1 142222Z 14002KT 34/16 A3011 RMK A01 T03390158  RH  034%=      5-min Rain = 0
KDC1 142223Z 15002KT 34/16 A3011 RMK A01 T03380158  RH  034%=      5-min Rain = 0
KDC1 142224Z 16002KT 34/16 A3011 RMK A01 T03370156  RH  034%=      5-min Rain = 0
KDC1 142225Z 17001KT 34/16 A3011 RMK A01 T03390156  RH  034%=      5-min Rain = 0
KDC1 142226Z 13000KT 34/16 A3011 RMK A01 T03430156  RH  033%=      5-min Rain = 0
KDC1 142227Z 11000KT 35/16 A301 RMK A01 T03460157  RH  032%=      5-min Rain = 0
KDC1 142228Z 09000KT 35/16 A301 RMK A01 T03490157  RH  032%=      5-min Rain = 0
KDC1 142229Z 04000KT 35/16 A301 RMK A01 T03480157  RH  032%=      5-min Rain = 0
KDC1 142230Z 05000KT 35/16 A301 RMK A01 T03480158  RH  032%=      5-min Rain = 0
KDC1 142231Z 26000KT 35/16 A301 RMK A01 T03500158  RH  032%=      5-min Rain = 0
KDC1 142232Z 02000KT 35/16 A301 RMK A01 T03530157  RH  031%=      5-min Rain = 0
KDC1 142233Z 08001KT 35/16 A301 RMK A01 T03530157  RH  031%=      5-min Rain = 0
KDC1 142234Z 13002KT 35/16 A301 RMK A01 T03510162  RH  033%=      5-min Rain = 0
KDC1 142235Z 15003KT 35/17 A301 RMK A01 T03480166  RH  034%=      5-min Rain = 0
KDC1 142236Z 16004KT 35/16 A301 RMK A01 T03480156  RH  032%=      5-min Rain = 0
KDC1 142237Z 15002KT 35/15 A301 RMK A01 T03460153  RH  032%=      5-min Rain = 0
KDC1 142238Z 14001KT 35/15 A301 RMK A01 T03450154  RH  032%=      5-min Rain = 0
KDC1 142239Z 08001KT 35/16 A301 RMK A01 T03450155  RH  032%=      5-min Rain = 0
KDC1 142240Z 16001KT 35/15 A301 RMK A01 T03460154  RH  032%=      5-min Rain = 0
KDC1 142241Z 15002KT 35/15 A301 RMK A01 T03460152  RH  031%=      5-min Rain = 0
KDC1 142242Z 13001KT 35/15 A301 RMK A01 T03470152  RH  031%=      5-min Rain = 0
KDC1 142243Z 15002KT 35/15 A301 RMK A01 T03470153  RH  031%=      5-min Rain = 0
KDC1 142244Z 15002KT 35/15 A301 RMK A01 T03470152  RH  031%=      5-min Rain = 0
KDC1 142245Z 11001KT 35/15 A301 RMK A01 T03470153  RH  031%=      5-min Rain = 0
KDC1 142246Z 08001KT 35/15 A301 RMK A01 T03470150  RH  031%=      5-min Rain = 0
KDC1 142247Z 05000KT 35/15 A301 RMK A01 T03470148  RH  030%=      5-min Rain = 0
KDC1 142248Z 05000KT 35/15 A301 RMK A01 T03490148  RH  030%=      5-min Rain = 0
KDC1 142249Z 31000KT 35/15 A301 RMK A01 T03520149  RH  030%=      5-min Rain = 0
KDC1 142250Z 17001KT 35/16 A301 RMK A01 T03530156  RH  031%=      5-min Rain = 0
KDC1 142251Z 16002KT 35/17 A301 RMK A01 T03520167  RH  033%=      5-min Rain = 0
KDC1 142252Z 15002KT 35/16 A301 RMK A01 T03520161  RH  032%=      5-min Rain = 0
KDC1 142253Z 18002KT 35/15 A301 RMK A01 T03510152  RH  030%=      5-min Rain = 0
KDC1 142254Z 14002KT 35/16 A301 RMK A01 T03510155  RH  031%=      5-min Rain = 0
KDC1 142255Z 13001KT 35/15 A301 RMK A01 T03500150  RH  030%=      5-min Rain = 0
KDC1 142256Z 13002KT 35/15 A301 RMK A01 T03490154  RH  031%=      5-min Rain = 0
KDC1 142257Z 12001KT 35/15 A301 RMK A01 T03480152  RH  031%=      5-min Rain = 0
KDC1 142258Z 15000KT 35/15 A301 RMK A01 T03460153  RH  031%=      5-min Rain = 0
KDC1 142259Z 16003KT 35/17 A301 RMK A01 T03460165  RH  034%=      5-min Rain = 0
KDC1 142300Z 17003KT 35/17 A301 RMK A01 T03470169  RH  035%=      5-min Rain = 0
KDC1 142301Z 18003KT 35/16 A301 RMK A01 T03470162  RH  033%=      5-min Rain = 0
KDC1 142302Z 17002KT 35/16 A301 RMK A01 T03470160  RH  033%=      5-min Rain = 0
KDC1 142303Z 17001KT 35/16 A301 RMK A01 T03470156  RH  032%=      5-min Rain = 0
KDC1 142304Z 14002KT 35/16 A301 RMK A01 T03470157  RH  032%=      5-min Rain = 0
KDC1 142305Z 16004KT 35/16 A301 RMK A01 T03480160  RH  033%=      5-min Rain = 0
KDC1 142306Z 16003KT 35/17 A3009 RMK A01 T03460169  RH  035%=      5-min Rain = 0
KDC1 142307Z 14004KT 35/17 A3009 RMK A01 T03450173  RH  036%=      5-min Rain = 0
KDC1 142308Z 15003KT 34/19 A3009 RMK A01 T03430185  RH  039%=      5-min Rain = 0
KDC1 142309Z 15003KT 35/18 A3009 RMK A01 T03450182  RH  038%=      5-min Rain = 0
KDC1 142310Z 15004KT 35/18 A3009 RMK A01 T03460177  RH  037%=      5-min Rain = 0
KDC1 142311Z 17004KT 35/18 A3009 RMK A01 T03450179  RH  037%=      5-min Rain = 0
KDC1 142312Z 18005KT 35/16 A3009 RMK A01 T03450163  RH  034%=      5-min Rain = 0
KDC1 142313Z 18005KT 34/16 A3009 RMK A01 T03430164  RH  034%=      5-min Rain = 0
KDC1 142314Z 18002KT 34/16 A3009 RMK A01 T03420159  RH  034%=      5-min Rain = 0
KDC1 142315Z 18001KT 34/16 A3009 RMK A01 T03430160  RH  034%=      5-min Rain = 0
KDC1 142316Z 18002KT 35/16 A3009 RMK A01 T03460162  RH  033%=      5-min Rain = 0
KDC1 142317Z 16002KT 35/17 A3009 RMK A01 T03470165  RH  034%=      5-min Rain = 0
KDC1 142318Z 17005KT 35/18 A3009 RMK A01 T03480176  RH  036%=      5-min Rain = 0
KDC1 142319Z 19005KT 35/17 A3009 RMK A01 T03470165  RH  034%=      5-min Rain = 0
KDC1 142320Z 17005KT 34/16 A3009 RMK A01 T03440162  RH  034%=      5-min Rain = 0
KDC1 142321Z 16006KT 34/18 A3009 RMK A01 T03420175  RH  037%=      5-min Rain = 0
KDC1 142322Z 16004KT 34/18 A3009 RMK A01 T03410177  RH  038%=      5-min Rain = 0
KDC1 142323Z 16004KT 34/17 A3009 RMK A01 T03420168  RH  036%=      5-min Rain = 0
KDC1 142324Z 15004KT 34/17 A3009 RMK A01 T03420172  RH  036%=      5-min Rain = 0
KDC1 142325Z 15003KT 34/17 A3009 RMK A01 T03410168  RH  036%=      5-min Rain = 0
KDC1 142326Z 15007KT 34/17 A3009 RMK A01 T03420174  RH  037%=      5-min Rain = 0
KDC1 142327Z 14006KT 34/19 A3009 RMK A01 T03410187  RH  040%=      5-min Rain = 0
KDC1 142328Z 15007KT 34/18 A3009 RMK A01 T03390184  RH  040%=      5-min Rain = 0
KDC1 142329Z 15007KT 34/18 A3009 RMK A01 T03380176  RH  038%=      5-min Rain = 0
KDC1 142330Z 16005KT 34/17 A3009 RMK A01 T03370168  RH  036%=      5-min Rain = 0
KDC1 142331Z 17005KT 34/16 A3009 RMK A01 T03370164  RH  036%=      5-min Rain = 0
KDC1 142332Z 18004KT 34/16 A3009 RMK A01 T03380164  RH  035%=      5-min Rain = 0
KDC1 142333Z 17006KT 34/16 A3009 RMK A01 T03380164  RH  035%=      5-min Rain = 0
KDC1 142334Z 16008KT 34/17 A3009 RMK A01 T03390167  RH  036%=      5-min Rain = 0
KDC1 142335Z 16008KT 34/17 A3009 RMK A01 T03380168  RH  036%=      5-min Rain = 0
KDC1 142336Z 16006KT 34/17 A3009 RMK A01 T03370167  RH  036%=      5-min Rain = 0
KDC1 142337Z 16006KT 34/18 A3009 RMK A01 T03360177  RH  039%=      5-min Rain = 0
KDC1 142338Z 15008KT 34/18 A3009 RMK A01 T03350180  RH  040%=      5-min Rain = 0
KDC1 142339Z 15007KT 33/18 A3009 RMK A01 T03340183  RH  041%=      5-min Rain = 0
KDC1 142340Z 15008KT 33/18 A3009 RMK A01 T03330181  RH  041%=      5-min Rain = 0
KDC1 142341Z 16008KT 33/17 A3009 RMK A01 T03330173  RH  039%=      5-min Rain = 0
KDC1 142342Z 16009KT 33/17 A3009 RMK A01 T03330170  RH  038%=      5-min Rain = 0
KDC1 142343Z 15009KT 33/17 A3009 RMK A01 T03330167  RH  037%=      5-min Rain = 0
KDC1 142344Z 16008KT 33/17 A3009 RMK A01 T03330171  RH  038%=      5-min Rain = 0
KDC1 142345Z 17008KT 33/18 A3009 RMK A01 T03330177  RH  039%=      5-min Rain = 0
KDC1 142346Z 16008KT 33/17 A3009 RMK A01 T03330173  RH  039%=      5-min Rain = 0
KDC1 142347Z 16008KT 33/18 A3009 RMK A01 T03320176  RH  039%=      5-min Rain = 0
KDC1 142348Z 16008KT 33/18 A3009 RMK A01 T03320180  RH  041%=      5-min Rain = 0
KDC1 142349Z 14009KT 33/19 A3009 RMK A01 T03310186  RH  042%=      5-min Rain = 0
KDC1 142350Z 13009KT 33/19 A3009 RMK A01 T03290191  RH  044%=      5-min Rain = 0
KDC1 142351Z 14011KT 33/18 A3009 RMK A01 T03270182  RH  042%=      5-min Rain = 0
KDC1 142352Z 13010KT 33/17 A3009 RMK A01 T03270172  RH  040%=      5-min Rain = 0
KDC1 142353Z 13008KT 33/18 A3009 RMK A01 T03270180  RH  041%=      5-min Rain = 0
KDC1 142354Z 14007KT 33/18 A3009 RMK A01 T03280180  RH  042%=      5-min Rain = 0
KDC1 142355Z 14006KT 33/19 A3009 RMK A01 T03270189  RH  044%=      5-min Rain = 0
KDC1 142356Z 14007KT 33/18 A3009 RMK A01 T03270184  RH  043%=      5-min Rain = 0
KDC1 142357Z 14007KT 33/19 A3009 RMK A01 T03270192  RH  045%=      5-min Rain = 0
KDC1 142358Z 14009KT 33/18 A3009 RMK A01 T03260183  RH  043%=      5-min Rain = 0
KDC1 142359Z 13009KT 33/18 A3009 RMK A01 T03270180  RH  042%=      5-min Rain = 0
KDC1 150000Z 14011KT 33/18 A3009 RMK A01 T03280175  RH  040%=      5-min Rain = 0
KDC1 150001Z 14012KT 33/17 A3009 RMK A01 T03280171  RH  039%=      5-min Rain = 0
KDC1 150002Z 13012KT 33/17 A3009 RMK A01 T03270172  RH  040%=      5-min Rain = 0
KDC1 150003Z 14013KT 33/17 A3009 RMK A01 T03260170  RH  039%=      5-min Rain = 0
KDC1 150004Z 14012KT 33/17 A3009 RMK A01 T03260170  RH  039%=      5-min Rain = 0
KDC1 150005Z 13010KT 33/17 A3009 RMK A01 T03270172  RH  040%=      5-min Rain = 0
KDC1 150006Z 14009KT 33/18 A3009 RMK A01 T03250177  RH  041%=      5-min Rain = 0
KDC1 150007Z 14007KT 32/18 A301 RMK A01 T03230179  RH  042%=      5-min Rain = 0
KDC1 150008Z 13010KT 32/18 A301 RMK A01 T03220180  RH  043%=      5-min Rain = 0
KDC1 150009Z 13009KT 32/18 A301 RMK A01 T03220178  RH  042%=      5-min Rain = 0
KDC1 150010Z 13008KT 32/18 A301 RMK A01 T03210182  RH  044%=      5-min Rain = 0
KDC1 150011Z 13009KT 32/18 A301 RMK A01 T03200183  RH  044%=      5-min Rain = 0
KDC1 150012Z 14007KT 32/19 A301 RMK A01 T03180186  RH  046%=      5-min Rain = 0
KDC1 150013Z 14008KT 32/18 A301 RMK A01 T03160184  RH  046%=      5-min Rain = 0
KDC1 150014Z 14008KT 32/18 A301 RMK A01 T03150183  RH  046%=      5-min Rain = 0
KDC1 150015Z 14011KT 31/18 A301 RMK A01 T03140178  RH  044%=      5-min Rain = 0
KDC1 150016Z 14011KT 31/18 A301 RMK A01 T03140176  RH  044%=      5-min Rain = 0
KDC1 150017Z 13010KT 32/18 A301 RMK A01 T03150175  RH  043%=      5-min Rain = 0
KDC1 150018Z 14010KT 32/18 A301 RMK A01 T03150178  RH  044%=      5-min Rain = 0
KDC1 150019Z 15009KT 32/18 A301 RMK A01 T03160179  RH  044%=      5-min Rain = 0
KDC1 150020Z 14010KT 32/18 A301 RMK A01 T03160176  RH  043%=      5-min Rain = 0
KDC1 150021Z 14011KT 32/18 A301 RMK A01 T03170176  RH  043%=      5-min Rain = 0
KDC1 150022Z 14011KT 32/17 A301 RMK A01 T03180174  RH  042%=      5-min Rain = 0
KDC1 150023Z 14011KT 32/17 A301 RMK A01 T03170172  RH  042%=      5-min Rain = 0
KDC1 150024Z 14011KT 32/17 A301 RMK A01 T03160173  RH  043%=      5-min Rain = 0
KDC1 150025Z 14013KT 32/17 A301 RMK A01 T03150170  RH  042%=      5-min Rain = 0
KDC1 150026Z 14012KT 31/17 A301 RMK A01 T03140168  RH  041%=      5-min Rain = 0
KDC1 150027Z 14011KT 31/17 A301 RMK A01 T03130169  RH  042%=      5-min Rain = 0
KDC1 150028Z 14011KT 31/17 A301 RMK A01 T03120170  RH  043%=      5-min Rain = 0
KDC1 150029Z 14011KT 31/17 A3009 RMK A01 T03110166  RH  042%=      5-min Rain = 0
KDC1 150030Z 15010KT 31/17 A301 RMK A01 T03110167  RH  042%=      5-min Rain = 0
KDC1 150031Z 15009KT 31/17 A301 RMK A01 T03110167  RH  042%=      5-min Rain = 0
KDC1 150032Z 14010KT 31/16 A301 RMK A01 T03120162  RH  040%=      5-min Rain = 0
KDC1 150033Z 14009KT 31/17 A301 RMK A01 T03130165  RH  041%=      5-min Rain = 0
KDC1 150034Z 14007KT 31/17 A301 RMK A01 T03120170  RH  043%=      5-min Rain = 0
KDC1 150035Z 15006KT 31/17 A301 RMK A01 T03090174  RH  044%=      5-min Rain = 0
KDC1 150036Z 14006KT 31/18 A301 RMK A01 T03070178  RH  046%=      5-min Rain = 0
KDC1 150037Z 15006KT 31/18 A3011 RMK A01 T03070177  RH  046%=      5-min Rain = 0
KDC1 150038Z 16006KT 31/17 A3011 RMK A01 T03070171  RH  044%=      5-min Rain = 0
KDC1 150039Z 16005KT 31/17 A3011 RMK A01 T03090170  RH  043%=      5-min Rain = 0
KDC1 150040Z 16005KT 31/17 A3011 RMK A01 T03100166  RH  042%=      5-min Rain = 0
KDC1 150041Z 15005KT 31/17 A3011 RMK A01 T03120169  RH  042%=      5-min Rain = 0
KDC1 150042Z 15006KT 31/17 A3011 RMK A01 T03130169  RH  042%=      5-min Rain = 0
KDC1 150043Z 14007KT 31/17 A3011 RMK A01 T03130170  RH  042%=      5-min Rain = 0
KDC1 150044Z 14006KT 31/17 A301 RMK A01 T03130172  RH  043%=      5-min Rain = 0
KDC1 150045Z 14006KT 31/18 A301 RMK A01 T03100176  RH  045%=      5-min Rain = 0
KDC1 150046Z 14007KT 31/18 A301 RMK A01 T03080177  RH  046%=      5-min Rain = 0
KDC1 150047Z 13007KT 31/18 A3011 RMK A01 T03050176  RH  046%=      5-min Rain = 0
KDC1 150048Z 13007KT 30/18 A3011 RMK A01 T03040178  RH  047%=      5-min Rain = 0
KDC1 150049Z 13007KT 30/18 A3011 RMK A01 T03030177  RH  047%=      5-min Rain = 0
KDC1 150050Z 13007KT 30/18 A3011 RMK A01 T03020175  RH  047%=      5-min Rain = 0
KDC1 150051Z 13007KT 30/18 A3011 RMK A01 T03020176  RH  047%=      5-min Rain = 0
KDC1 150052Z 13007KT 30/18 A3011 RMK A01 T03010177  RH  047%=      5-min Rain = 0
KDC1 150053Z 13007KT 30/18 A3011 RMK A01 T03000179  RH  048%=      5-min Rain = 0
KDC1 150054Z 12006KT 30/18 A3011 RMK A01 T02990181  RH  049%=      5-min Rain = 0
KDC1 150055Z 13007KT 30/18 A3011 RMK A01 T02970183  RH  050%=      5-min Rain = 0
KDC1 150056Z 14007KT 30/18 A3011 RMK A01 T02950181  RH  050%=      5-min Rain = 0
KDC1 150057Z 14007KT 29/18 A3011 RMK A01 T02940178  RH  050%=      5-min Rain = 0
KDC1 150058Z 13007KT 29/18 A3011 RMK A01 T02940176  RH  049%=      5-min Rain = 0
KDC1 150059Z 14007KT 29/18 A3011 RMK A01 T02940177  RH  049%=      5-min Rain = 0
KDC1 150100Z 13006KT 29/18 A3011 RMK A01 T02930177  RH  050%=      5-min Rain = 0
KDC1 150101Z 13006KT 29/18 A3011 RMK A01 T02920177  RH  050%=      5-min Rain = 0
KDC1 150102Z 13007KT 29/17 A3011 RMK A01 T02920174  RH  049%=      5-min Rain = 0
KDC1 150103Z 13006KT 29/17 A3011 RMK A01 T02920171  RH  048%=      5-min Rain = 0
KDC1 150104Z 13006KT 29/17 A3011 RMK A01 T02930170  RH  047%=      5-min Rain = 0
KDC1 150105Z 14005KT 29/17 A3011 RMK A01 T02940170  RH  047%=      5-min Rain = 0
KDC1 150106Z 14005KT 30/17 A3011 RMK A01 T02950169  RH  047%=      5-min Rain = 0
KDC1 150107Z 14004KT 30/17 A3011 RMK A01 T02950172  RH  047%=      5-min Rain = 0
KDC1 150108Z 14003KT 29/17 A3012 RMK A01 T02940174  RH  048%=      5-min Rain = 0
KDC1 150109Z 13002KT 29/17 A3012 RMK A01 T02930171  RH  048%=      5-min Rain = 0
KDC1 150110Z 11003KT 29/17 A3012 RMK A01 T02930168  RH  047%=      5-min Rain = 0
KDC1 150111Z 13002KT 29/17 A3012 RMK A01 T02930165  RH  046%=      5-min Rain = 0
KDC1 150112Z 12002KT 30/16 A3012 RMK A01 T02950163  RH  045%=      5-min Rain = 0
KDC1 150113Z 13002KT 30/16 A3011 RMK A01 T02960161  RH  044%=      5-min Rain = 0
KDC1 150114Z 14004KT 30/16 A3011 RMK A01 T02970161  RH  044%=      5-min Rain = 0
KDC1 150115Z 14003KT 30/16 A3011 RMK A01 T02980160  RH  043%=      5-min Rain = 0
KDC1 150116Z 14003KT 30/16 A3011 RMK A01 T02980163  RH  044%=      5-min Rain = 0
KDC1 150117Z 15004KT 30/17 A3011 RMK A01 T02990165  RH  044%=      5-min Rain = 0
KDC1 150118Z 15004KT 30/17 A3011 RMK A01 T02980165  RH  045%=      5-min Rain = 0
KDC1 150119Z 15005KT 30/17 A3011 RMK A01 T02970167  RH  045%=      5-min Rain = 0
KDC1 150120Z 15006KT 30/17 A3011 RMK A01 T02960171  RH  047%=      5-min Rain = 0
KDC1 150121Z 14007KT 30/17 A3011 RMK A01 T02950168  RH  046%=      5-min Rain = 0
KDC1 150122Z 14007KT 30/17 A3011 RMK A01 T02950167  RH  046%=      5-min Rain = 0
KDC1 150123Z 14007KT 30/17 A3011 RMK A01 T02950166  RH  046%=      5-min Rain = 0
KDC1 150124Z 14008KT 29/17 A3011 RMK A01 T02940167  RH  046%=      5-min Rain = 0
KDC1 150125Z 14008KT 29/17 A3011 RMK A01 T02930168  RH  047%=      5-min Rain = 0
KDC1 150126Z 14007KT 29/17 A3011 RMK A01 T02920171  RH  048%=      5-min Rain = 0
KDC1 150127Z 14008KT 29/17 A3011 RMK A01 T02910170  RH  048%=      5-min Rain = 0
KDC1 150128Z 13007KT 29/17 A3011 RMK A01 T02900166  RH  047%=      5-min Rain = 0
KDC1 150129Z 13007KT 29/17 A3011 RMK A01 T02910170  RH  048%=      5-min Rain = 0
KDC1 150130Z 13007KT 29/17 A3011 RMK A01 T02900170  RH  048%=      5-min Rain = 0
KDC1 150131Z 13007KT 29/17 A3011 RMK A01 T02900170  RH  049%=      5-min Rain = 0
KDC1 150132Z 12006KT 29/17 A3011 RMK A01 T02900170  RH  048%=      5-min Rain = 0
KDC1 150133Z 12006KT 29/17 A3011 RMK A01 T02890172  RH  049%=      5-min Rain = 0
KDC1 150134Z 12005KT 29/17 A3012 RMK A01 T02890172  RH  049%=      5-min Rain = 0
KDC1 150135Z 12005KT 29/17 A3012 RMK A01 T02890172  RH  049%=      5-min Rain = 0
KDC1 150136Z 12005KT 29/17 A3012 RMK A01 T02880173  RH  050%=      5-min Rain = 0
KDC1 150137Z 11004KT 29/17 A3012 RMK A01 T02880173  RH  050%=      5-min Rain = 0
KDC1 150138Z 11004KT 29/17 A3012 RMK A01 T02880172  RH  049%=      5-min Rain = 0
KDC1 150139Z 12004KT 29/17 A3012 RMK A01 T02880170  RH  049%=      5-min Rain = 0
KDC1 150140Z 12004KT 29/17 A3012 RMK A01 T02890165  RH  047%=      5-min Rain = 0
KDC1 150141Z 13004KT 29/16 A3012 RMK A01 T02900162  RH  046%=      5-min Rain = 0
KDC1 150142Z 13003KT 29/16 A3012 RMK A01 T02920161  RH  045%=      5-min Rain = 0
KDC1 150143Z 14003KT 29/16 A3012 RMK A01 T02940161  RH  045%=      5-min Rain = 0
KDC1 150144Z 14003KT 30/16 A3012 RMK A01 T02950160  RH  044%=      5-min Rain = 0
KDC1 150145Z 14003KT 30/16 A3012 RMK A01 T02960158  RH  043%=      5-min Rain = 0
KDC1 150146Z 14003KT 30/16 A3012 RMK A01 T02970157  RH  043%=      5-min Rain = 0
KDC1 150147Z 14003KT 30/16 A3012 RMK A01 T02990157  RH  042%=      5-min Rain = 0
KDC1 150148Z 15002KT 30/16 A3013 RMK A01 T03000158  RH  042%=      5-min Rain = 0
KDC1 150149Z 15002KT 30/16 A3013 RMK A01 T03010157  RH  042%=      5-min Rain = 0
KDC1 150150Z 16002KT 30/16 A3013 RMK A01 T03010157  RH  042%=      5-min Rain = 0
KDC1 150151Z 21001KT 30/16 A3013 RMK A01 T03010157  RH  042%=      5-min Rain = 0
KDC1 150152Z 28003KT 30/16 A3013 RMK A01 T03020156  RH  041%=      5-min Rain = 0
KDC1 150153Z 28005KT 30/16 A3013 RMK A01 T03030161  RH  042%=      5-min Rain = 0
KDC1 150154Z 28004KT 30/16 A3013 RMK A01 T03000157  RH  042%=      5-min Rain = 0
KDC1 150155Z 27001KT 30/15 A3013 RMK A01 T02980154  RH  042%=      5-min Rain = 0
KDC1 150156Z 14001KT 30/15 A3013 RMK A01 T02960149  RH  041%=      5-min Rain = 0
KDC1 150157Z 15003KT 30/14 A3013 RMK A01 T02950138  RH  038%=      5-min Rain = 0
KDC1 150158Z 14004KT 30/14 A3013 RMK A01 T02960135  RH  037%=      5-min Rain = 0
KDC1 150159Z 16001KT 30/14 A3013 RMK A01 T02970138  RH  038%=      5-min Rain = 0
KDC1 150200Z 19001KT 30/14 A3013 RMK A01 T02970139  RH  038%=      5-min Rain = 0
KDC1 150201Z 20001KT 30/14 A3013 RMK A01 T02980138  RH  038%=      5-min Rain = 0
KDC1 150202Z 28001KT 30/14 A3013 RMK A01 T02980139  RH  038%=      5-min Rain = 0
KDC1 150203Z 33003KT 30/14 A3013 RMK A01 T02980141  RH  038%=      5-min Rain = 0
KDC1 150204Z 32003KT 30/14 A3013 RMK A01 T03000142  RH  038%=      5-min Rain = 0
KDC1 150205Z 33003KT 30/14 A3013 RMK A01 T03030143  RH  038%=      5-min Rain = 0
KDC1 150206Z 32003KT 31/14 A3013 RMK A01 T03050143  RH  037%=      5-min Rain = 0
KDC1 150207Z 34002KT 31/14 A3013 RMK A01 T03050143  RH  037%=      5-min Rain = 0
KDC1 150208Z 34002KT 31/15 A3013 RMK A01 T03050146  RH  038%=      5-min Rain = 0
KDC1 150209Z 35001KT 30/15 A3014 RMK A01 T03040146  RH  038%=      5-min Rain = 0
KDC1 150210Z 02001KT 30/15 A3014 RMK A01 T03030146  RH  039%=      5-min Rain = 0
KDC1 150211Z 02001KT 30/15 A3014 RMK A01 T03030146  RH  038%=      5-min Rain = 0
KDC1 150212Z 01001KT 30/15 A3014 RMK A01 T03030147  RH  039%=      5-min Rain = 0
KDC1 150213Z 34000KT 30/15 A3014 RMK A01 T03040148  RH  039%=      5-min Rain = 0
KDC1 150214Z 00000KT 30/15 A3014 RMK A01 T03030147  RH  039%=      5-min Rain = 0
KDC1 150215Z 01000KT 30/15 A3014 RMK A01 T03020146  RH  039%=      5-min Rain = 0
KDC1 150216Z 03001KT 30/15 A3014 RMK A01 T03010147  RH  039%=      5-min Rain = 0
KDC1 150217Z 03000KT 30/15 A3014 RMK A01 T03010146  RH  039%=      5-min Rain = 0
KDC1 150218Z 02001KT 30/15 A3014 RMK A01 T03000147  RH  039%=      5-min Rain = 0
KDC1 150219Z 02002KT 30/15 A3014 RMK A01 T03000152  RH  041%=      5-min Rain = 0
KDC1 150220Z 02003KT 30/16 A3014 RMK A01 T03000159  RH  043%=      5-min Rain = 0
KDC1 150221Z 00003KT 30/16 A3014 RMK A01 T02980159  RH  043%=      5-min Rain = 0
KDC1 150222Z 36002KT 30/16 A3014 RMK A01 T02960157  RH  043%=      5-min Rain = 0
KDC1 150223Z 01003KT 30/16 A3015 RMK A01 T02960157  RH  043%=      5-min Rain = 0
KDC1 150224Z 01003KT 30/16 A3015 RMK A01 T02950159  RH  044%=      5-min Rain = 0
KDC1 150225Z 01004KT 29/16 A3015 RMK A01 T02940160  RH  044%=      5-min Rain = 0
KDC1 150226Z 02003KT 29/16 A3015 RMK A01 T02930161  RH  045%=      5-min Rain = 0
KDC1 150227Z 02003KT 29/16 A3015 RMK A01 T02930161  RH  045%=      5-min Rain = 0
KDC1 150228Z 01003KT 29/16 A3015 RMK A01 T02920162  RH  045%=      5-min Rain = 0
KDC1 150229Z 02003KT 29/16 A3015 RMK A01 T02920161  RH  045%=      5-min Rain = 0
KDC1 150230Z 02003KT 29/16 A3015 RMK A01 T02910161  RH  045%=      5-min Rain = 0
KDC1 150231Z 03003KT 29/16 A3015 RMK A01 T02910162  RH  046%=      5-min Rain = 0
KDC1 150232Z 03003KT 29/16 A3015 RMK A01 T02910163  RH  046%=      5-min Rain = 0
KDC1 150233Z 04003KT 29/16 A3015 RMK A01 T02910163  RH  046%=      5-min Rain = 0
KDC1 150234Z 04004KT 29/16 A3015 RMK A01 T02910163  RH  046%=      5-min Rain = 0
KDC1 150235Z 04004KT 29/16 A3015 RMK A01 T02910164  RH  046%=      5-min Rain = 0
KDC1 150236Z 04003KT 29/16 A3015 RMK A01 T02910164  RH  046%=      5-min Rain = 0
KDC1 150237Z 05004KT 29/16 A3015 RMK A01 T02910164  RH  046%=      5-min Rain = 0
KDC1 150238Z 05004KT 29/17 A3015 RMK A01 T02910165  RH  046%=      5-min Rain = 0
KDC1 150239Z 05003KT 29/16 A3015 RMK A01 T02910164  RH  046%=      5-min Rain = 0
KDC1 150240Z 06003KT 29/16 A3015 RMK A01 T02910164  RH  046%=      5-min Rain = 0
KDC1 150241Z 07003KT 29/17 A3015 RMK A01 T02910165  RH  046%=      5-min Rain = 0
KDC1 150242Z 07003KT 29/16 A3015 RMK A01 T02910162  RH  046%=      5-min Rain = 0
KDC1 150243Z 07003KT 29/16 A3015 RMK A01 T02920163  RH  046%=      5-min Rain = 0
KDC1 150244Z 07003KT 29/16 A3015 RMK A01 T02920162  RH  045%=      5-min Rain = 0
KDC1 150245Z 07003KT 29/16 A3015 RMK A01 T02930164  RH  046%=      5-min Rain = 0
KDC1 150246Z 07002KT 29/16 A3015 RMK A01 T02930162  RH  045%=      5-min Rain = 0
KDC1 150247Z 06002KT 29/16 A3015 RMK A01 T02940162  RH  045%=      5-min Rain = 0
KDC1 150248Z 06002KT 29/16 A3015 RMK A01 T02940162  RH  045%=      5-min Rain = 0
KDC1 150249Z 06002KT 30/16 A3015 RMK A01 T02950162  RH  045%=      5-min Rain = 0
KDC1 150250Z 06002KT 30/16 A3015 RMK A01 T02950161  RH  044%=      5-min Rain = 0
KDC1 150251Z 06002KT 30/16 A3015 RMK A01 T02950162  RH  045%=      5-min Rain = 0
KDC1 150252Z 05002KT 30/16 A3015 RMK A01 T02950163  RH  045%=      5-min Rain = 0
KDC1 150253Z 04001KT 30/16 A3016 RMK A01 T02950163  RH  045%=      5-min Rain = 0
KDC1 150254Z 03001KT 29/16 A3016 RMK A01 T02940162  RH  045%=      5-min Rain = 0
KDC1 150255Z 01000KT 29/16 A3016 RMK A01 T02940162  RH  045%=      5-min Rain = 0
KDC1 150256Z 00000KT 29/16 A3016 RMK A01 T02940163  RH  045%=      5-min Rain = 0
KDC1 150257Z 30000KT 29/17 A3016 RMK A01 T02930170  RH  047%=      5-min Rain = 0
KDC1 150258Z 29000KT 29/17 A3016 RMK A01 T02920172  RH  048%=      5-min Rain = 0
KDC1 150259Z 27001KT 29/17 A3016 RMK A01 T02900171  RH  049%=      5-min Rain = 0
KDC1 150300Z 27003KT 29/17 A3016 RMK A01 T02890172  RH  049%=      5-min Rain = 0
KDC1 150301Z 27004KT 29/17 A3016 RMK A01 T02870173  RH  050%=      5-min Rain = 0
KDC1 150302Z 28004KT 29/18 A3016 RMK A01 T02850176  RH  051%=      5-min Rain = 0
KDC1 150303Z 29005KT 28/18 A3016 RMK A01 T02830177  RH  053%=      5-min Rain = 0
KDC1 150304Z 30006KT 28/18 A3016 RMK A01 T02800176  RH  053%=      5-min Rain = 0
KDC1 150305Z 31006KT 28/18 A3016 RMK A01 T02780177  RH  054%=      5-min Rain = 0
KDC1 150306Z 31006KT 28/18 A3017 RMK A01 T02760175  RH  054%=      5-min Rain = 0
KDC1 150307Z 31004KT 28/18 A3017 RMK A01 T02750175  RH  054%=      5-min Rain = 0
KDC1 150308Z 08002KT 28/18 A3017 RMK A01 T02750175  RH  054%=      5-min Rain = 0
KDC1 150309Z 07006G15KT 28/18 A3018 RMK A01 T02750175  RH  054%=      5-min Rain = 0
KDC1 150310Z 13011G16KT 28/17 A3018 RMK A01 T02780172  RH  052%=      5-min Rain = 0
KDC1 150311Z 13008KT 28/17 A3018 RMK A01 T02800174  RH  052%=      5-min Rain = 0
KDC1 150312Z 13008KT 28/17 A3018 RMK A01 T02810171  RH  051%=      5-min Rain = 0
KDC1 150313Z 12009KT 28/17 A3018 RMK A01 T02820172  RH  051%=      5-min Rain = 0
KDC1 150314Z 12009KT 28/17 A3018 RMK A01 T02830172  RH  051%=      5-min Rain = 0
KDC1 150315Z 12008KT 28/17 A3018 RMK A01 T02830173  RH  051%=      5-min Rain = 0
KDC1 150316Z 12008KT 28/17 A3018 RMK A01 T02830173  RH  051%=      5-min Rain = 0
KDC1 150317Z 13009KT 28/17 A3018 RMK A01 T02840172  RH  051%=      5-min Rain = 0
KDC1 150318Z 12009KT 28/17 A3018 RMK A01 T02840173  RH  051%=      5-min Rain = 0
KDC1 150319Z 12007KT 28/17 A3018 RMK A01 T02840174  RH  051%=      5-min Rain = 0
KDC1 150320Z 13007KT 28/18 A3018 RMK A01 T02830175  RH  052%=      5-min Rain = 0
KDC1 150321Z 13006KT 28/18 A3019 RMK A01 T02820177  RH  053%=      5-min Rain = 0
KDC1 150322Z 14006KT 28/18 A3019 RMK A01 T02800176  RH  053%=      5-min Rain = 0
KDC1 150323Z 14006KT 28/18 A3019 RMK A01 T02790176  RH  053%=      5-min Rain = 0
KDC1 150324Z 14006KT 28/18 A3019 RMK A01 T02780175  RH  054%=      5-min Rain = 0
KDC1 150325Z 14007KT 28/17 A3019 RMK A01 T02780174  RH  053%=      5-min Rain = 0
KDC1 150326Z 14008KT 28/17 A3019 RMK A01 T02780171  RH  052%=      5-min Rain = 0
KDC1 150327Z 14009KT 28/17 A3019 RMK A01 T02790170  RH  051%=      5-min Rain = 0
KDC1 150328Z 14008KT 28/17 A3019 RMK A01 T02810169  RH  051%=      5-min Rain = 0
KDC1 150329Z 14008KT 28/17 A3019 RMK A01 T02810171  RH  051%=      5-min Rain = 0
KDC1 150330Z 14008KT 28/17 A3019 RMK A01 T02810170  RH  051%=      5-min Rain = 0
KDC1 150331Z 14008KT 28/17 A3019 RMK A01 T02810170  RH  051%=      5-min Rain = 0
KDC1 150332Z 14008KT 28/17 A3019 RMK A01 T02810171  RH  051%=      5-min Rain = 0
KDC1 150333Z 14007KT 28/17 A3019 RMK A01 T02800171  RH  052%=      5-min Rain = 0
KDC1 150334Z 14007KT 28/17 A3019 RMK A01 T02800171  RH  052%=      5-min Rain = 0
KDC1 150335Z 15007KT 28/17 A3019 RMK A01 T02800171  RH  052%=      5-min Rain = 0
KDC1 150336Z 15008KT 28/17 A3019 RMK A01 T02790171  RH  052%=      5-min Rain = 0
KDC1 150337Z 15009KT 28/17 A3018 RMK A01 T02790170  RH  051%=      5-min Rain = 0
KDC1 150338Z 15008KT 28/17 A3018 RMK A01 T02800171  RH  051%=      5-min Rain = 0
KDC1 150339Z 15012KT 28/17 A3018 RMK A01 T02810169  RH  051%=      5-min Rain = 0
KDC1 150340Z 15009KT 28/17 A3018 RMK A01 T02820168  RH  050%=      5-min Rain = 0
KDC1 150341Z 15008KT 28/17 A3018 RMK A01 T02820169  RH  050%=      5-min Rain = 0
KDC1 150342Z 15007KT 28/17 A3019 RMK A01 T02830170  RH  050%=      5-min Rain = 0
KDC1 150343Z 16005KT 28/17 A3019 RMK A01 T02830169  RH  050%=      5-min Rain = 0
KDC1 150344Z 16005KT 28/17 A3019 RMK A01 T02820168  RH  050%=      5-min Rain = 0
KDC1 150345Z 17003KT 28/17 A3019 RMK A01 T02820169  RH  050%=      5-min Rain = 0
KDC1 150346Z 19002KT 28/17 A3019 RMK A01 T02820168  RH  050%=      5-min Rain = 0
KDC1 150347Z 24001KT 28/17 A3019 RMK A01 T02820167  RH  050%=      5-min Rain = 0
KDC1 150348Z 33003KT 28/17 A302 RMK A01 T02820167  RH  049%=      5-min Rain = 0
KDC1 150349Z 32006KT 28/17 A302 RMK A01 T02830168  RH  050%=      5-min Rain = 0
KDC1 150350Z 32009KT 28/17 A302 RMK A01 T02830172  RH  051%=      5-min Rain = 0
KDC1 150351Z 32009KT 28/17 A302 RMK A01 T02810170  RH  051%=      5-min Rain = 0
KDC1 150352Z 32008KT 28/16 A302 RMK A01 T02800161  RH  048%=      5-min Rain = 0
KDC1 150353Z 32009KT 28/16 A3019 RMK A01 T02800158  RH  047%=      5-min Rain = 0
KDC1 150354Z 31009KT 28/16 A302 RMK A01 T02800160  RH  048%=      5-min Rain = 0
KDC1 150355Z 32010KT 28/16 A302 RMK A01 T02790161  RH  048%=      5-min Rain = 0
KDC1 150356Z 32012KT 28/15 A3019 RMK A01 T02780152  RH  046%=      5-min Rain = 0
KDC1 150357Z 32014KT 28/15 A3019 RMK A01 T02760150  RH  046%=      5-min Rain = 0
KDC1 150358Z 31014KT 27/15 A3019 RMK A01 T02730149  RH  047%=      5-min Rain = 0
KDC1 150359Z 31014KT 27/15 A3019 RMK A01 T02720149  RH  047%=      5-min Rain = 0
KDC1 150400Z 30013KT 27/15 A3019 RMK A01 T02710150  RH  047%=      5-min Rain = 0
KDC1 150401Z 30012KT 27/15 A3019 RMK A01 T02700151  RH  048%=      5-min Rain = 0
KDC1 150402Z 31011KT 27/15 A3019 RMK A01 T02690153  RH  049%=      5-min Rain = 0
KDC1 150403Z 31015G20KT 27/15 A3019 RMK A01 T02680152  RH  049%=      5-min Rain = 0
KDC1 150404Z 31018KT 27/15 A3019 RMK A01 T02670149  RH  048%=      5-min Rain = 0
KDC1 150405Z 32018KT 27/15 A3019 RMK A01 T02700151  RH  048%=      5-min Rain = 0
KDC1 150406Z 32018KT 27/15 A3019 RMK A01 T02710146  RH  046%=      5-min Rain = 0
KDC1 150407Z 32017KT 27/15 A3019 RMK A01 T02720146  RH  046%=      5-min Rain = 0
KDC1 150408Z 31015KT 27/15 A3019 RMK A01 T02700150  RH  048%=      5-min Rain = 0
KDC1 150409Z 30021G28KT 27/15 A3019 RMK A01 T02680152  RH  049%=      5-min Rain = 0
KDC1 150410Z 30020KT 27/15 A3019 RMK A01 T02680151  RH  048%=      5-min Rain = 0
KDC1 150411Z 33018G24KT 27/16 A3019 RMK A01 T02670156  RH  050%=      5-min Rain = 0
KDC1 150412Z 32020KT 26/16 A3019 RMK A01 T02610159  RH  053%=      5-min Rain = 0
KDC1 150413Z 32020G25KT 26/16 A3019 RMK A01 T02560160  RH  055%=      5-min Rain = 0
KDC1 150414Z 32019KT 25/16 A302 RMK A01 T02530159  RH  056%=      5-min Rain = 0
KDC1 150415Z 32018KT 25/16 A302 RMK A01 T02520159  RH  056%=      5-min Rain = 0
KDC1 150416Z 31026KT 25/16 A3019 RMK A01 T02500158  RH  057%=      5-min Rain = 0
KDC1 150417Z 30018G23KT 25/16 A302 RMK A01 T02480157  RH  057%=      5-min Rain = 0
KDC1 150418Z 31013KT 25/16 A302 RMK A01 T02450157  RH  058%=      5-min Rain = 0
KDC1 150419Z 33018G23KT 24/16 A302 RMK A01 T02420160  RH  060%=      5-min Rain = 0
KDC1 150420Z 33021KT 24/16 A302 RMK A01 T02400160  RH  061%=      5-min Rain = 0
KDC1 150421Z 33017KT 24/16 A3021 RMK A01 T02390160  RH  061%=      5-min Rain = 0
KDC1 150422Z 33017KT 24/16 A3021 RMK A01 T02390161  RH  062%=      5-min Rain = 0
KDC1 150423Z 33014KT 24/16 A3021 RMK A01 T02380162  RH  063%=      5-min Rain = 0
KDC1 150424Z 33016G21KT 24/16 A3021 RMK A01 T02360163  RH  063%=      5-min Rain = 0
KDC1 150425Z 32017KT 24/16 A3021 RMK A01 T02360162  RH  063%=      5-min Rain = 0
KDC1 150426Z 32017KT 24/16 A3021 RMK A01 T02350161  RH  063%=      5-min Rain = 0
KDC1 150427Z 32014G19KT 24/16 A3021 RMK A01 T02370161  RH  063%=      5-min Rain = 0
KDC1 150428Z 32015KT 24/16 A3021 RMK A01 T02370161  RH  062%=      5-min Rain = 0
KDC1 150429Z 31016G21KT 24/16 A3021 RMK A01 T02380162  RH  062%=      5-min Rain = 0
KDC1 150430Z 31017G23KT 24/16 A3021 RMK A01 T02380163  RH  063%=      5-min Rain = 0
KDC1 150431Z 31016G22KT 24/17 A3021 RMK A01 T02370166  RH  064%=      5-min Rain = 0
KDC1 150432Z 31016KT 24/17 A3021 RMK A01 T02350167  RH  066%=      5-min Rain = 0
KDC1 150433Z 31016KT 23/17 A3021 RMK A01 T02340168  RH  066%=      5-min Rain = 0
KDC1 150434Z 31016KT 23/17 A3021 RMK A01 T02340168  RH  066%=      5-min Rain = 0
KDC1 150435Z 31017KT 23/17 A3021 RMK A01 T02330168  RH  067%=      5-min Rain = 0
KDC1 150436Z 32021KT 23/17 A3021 RMK A01 T02330169  RH  067%=      5-min Rain = 0
KDC1 150437Z 32023KT 23/17 A3021 RMK A01 T02320167  RH  066%=      5-min Rain = 0
KDC1 150438Z 31020G25KT 23/17 A3021 RMK A01 T02310167  RH  067%=      5-min Rain = 0
KDC1 150439Z 31020KT 23/17 A3021 RMK A01 T02300167  RH  067%=      5-min Rain = 0
KDC1 150440Z 31018KT 23/17 A3021 RMK A01 T02290166  RH  067%=      5-min Rain = 0
KDC1 150441Z 31017KT 23/17 A3021 RMK A01 T02300165  RH  067%=      5-min Rain = 0
KDC1 150442Z 31018G23KT 23/16 A3021 RMK A01 T02300162  RH  066%=      5-min Rain = 0
KDC1 150443Z 32022KT 23/16 A3021 RMK A01 T02300162  RH  065%=      5-min Rain = 0
KDC1 150444Z 32024KT 23/16 A3021 RMK A01 T02300159  RH  064%=      5-min Rain = 0
KDC1 150445Z 31024KT 23/16 A3021 RMK A01 T02320157  RH  063%=      5-min Rain = 0
KDC1 150446Z 31025G33KT 23/16 A302 RMK A01 T02330158  RH  063%=      5-min Rain = 0
KDC1 150447Z 32028G33KT 23/16 A3021 RMK A01 T02320159  RH  063%=      5-min Rain = 0
KDC1 150448Z 31019G24KT 23/16 A3021 RMK A01 T02320159  RH  064%=      5-min Rain = 0
KDC1 150449Z 31019G24KT 23/16 A3021 RMK A01 T02320160  RH  064%=      5-min Rain = 0
KDC1 150450Z 31019KT 23/16 A3021 RMK A01 T02310159  RH  064%=      5-min Rain = 0
KDC1 150451Z 31019KT 23/16 A3021 RMK A01 T02310160  RH  064%=      5-min Rain = 0
KDC1 150452Z 31019KT 23/16 A3021 RMK A01 T02310159  RH  064%=      5-min Rain = 0
KDC1 150453Z 31020KT 23/16 A3021 RMK A01 T02320159  RH  063%=      5-min Rain = 0
KDC1 150454Z 30018KT 23/16 A3021 RMK A01 T02320159  RH  063%=      5-min Rain = 0
KDC1 150455Z 31016KT 23/16 A3021 RMK A01 T02320159  RH  064%=      5-min Rain = 0
KDC1 150456Z 31016KT 23/16 A3021 RMK A01 T02320158  RH  063%=      5-min Rain = 0
KDC1 150457Z 33015KT 23/16 A3021 RMK A01 T02320157  RH  062%=      5-min Rain = 0
KDC1 150458Z 32016KT 23/16 A3021 RMK A01 T02330158  RH  062%=      5-min Rain = 0
KDC1 150459Z 32016KT 23/16 A3021 RMK A01 T02330158  RH  062%=      5-min Rain = 0

Page generated in 0.1238 seconds.